User Preferences

Timezone
Units
Lat/Lon format
Defaults

Geo and time bounds

142 - SAN FRANCISCO BAR, CA   Notice:08/15/2019 Deployed buoy Mobile View
1474 records
Date
(UTC)
Hs
(ft)
Tp
(s)
Dp
(deg)
Ta
(s)
SST
(F)
Current sp
(kt)
Current dir
(deg)
2019-05-31 23:30 4.27 15.38 236 6.84 57.0 0.89 293.0
2019-05-31 23:00 4.30 15.38 230 6.91 57.0 0.76 283.0
2019-05-31 22:30 4.13 15.38 230 6.61 57.4 0.31 188.0
2019-05-31 22:00 3.77 15.38 240 6.41 57.4 0.27 130.0
2019-05-31 21:30 4.13 14.29 238 6.82
2019-05-31 20:30 4.30 15.38 242 6.93 57.0 0.25 72.0
2019-05-31 20:00 4.10 15.38 242 6.71 56.7 0.23 76.0
2019-05-31 19:30 4.13 15.38 235 6.81 56.5 0.27 58.0
2019-05-31 19:00 4.23 15.38 238 6.65 56.1 0.51 58.0
2019-05-31 18:30 4.72 15.38 235 7.45 55.6 0.52 54.0
2019-05-31 18:00 4.49 15.38 232 7.35 55.2 0.49 39.0
2019-05-31 17:30 4.69 15.38 229 6.98 56.3 0.76 28.0
2019-05-31 17:00 4.69 14.29 232 6.87 56.7 0.82 21.0
2019-05-31 16:30 4.66 16.67 232 6.62 57.0 0.78 5.0
2019-05-31 16:00 5.09 8.33 270 6.67 57.0 0.84 357.0
2019-05-31 15:30 4.82 15.38 232 6.57 57.0 0.84 331.0
2019-05-31 15:00 5.09 15.38 240 6.68 57.4 1.13 313.0
2019-05-31 14:30 5.02 15.38 242 6.66 57.7 1.24 300.0
2019-05-31 14:00 4.86 14.29 239 6.80 57.7 1.73 287.0
2019-05-31 13:30 4.89 15.38 245 6.67 57.2 1.87 284.0
2019-05-31 13:00 4.92 15.38 241 6.91 57.9 2.27 275.0
2019-05-31 12:30 4.99 15.38 240 6.88 56.5 2.10 274.0
2019-05-31 12:00 4.92 14.29 245 7.06 55.9 2.12 273.0
2019-05-31 11:30 4.49 14.29 242 6.72 55.0 2.02 274.0
2019-05-31 11:00 4.76 15.38 243 7.40 54.5 1.98 270.0
2019-05-31 10:30 4.59 15.38 236 7.01 54.0 1.90 273.0
2019-05-31 10:00 4.99 16.67 246 7.44 56.5 2.62 275.0
2019-05-31 09:30 4.89 15.38 241 7.39 56.3 1.83 279.0
2019-05-31 09:00 4.63 15.38 242 6.97 56.1 1.69 267.0
2019-05-31 08:30 4.30 15.38 241 7.07 55.2 0.62 247.0
2019-05-31 08:00 4.33 15.38 248 7.30 55.2 0.43 231.0
2019-05-31 07:30 4.20 15.38 249 6.92 55.2 0.33 195.0
2019-05-31 07:00 4.30 15.38 248 6.89 55.2 0.29 175.0
2019-05-31 06:30 4.23 15.38 244 6.97 55.2 0.27 150.0
2019-05-31 06:00 4.30 15.38 238 6.96 55.4 0.29 127.0
2019-05-31 05:30 4.07 15.38 247 6.88 55.6 0.39 114.0
2019-05-31 05:00 3.90 16.67 246 6.60 55.8 0.51 97.0
2019-05-31 04:30 3.81 15.38 250 6.43 55.9 0.56 84.0
2019-05-31 04:00 3.81 15.38 251 6.22 56.1 0.62 77.0
2019-05-31 03:30 3.71 15.38 251 6.12 56.3 0.60 72.0
2019-05-31 03:00 3.87 15.38 243 6.32 56.7 0.52 74.0
2019-05-31 02:30 3.81 16.67 243 6.21 56.8 0.66 64.0
2019-05-31 02:00 4.04 15.38 245 6.52 57.2 0.45 71.0
2019-05-31 01:30 3.81 15.38 249 5.99 57.9 0.27 33.0
2019-05-31 01:00 3.84 15.38 242 5.89 57.9 0.23 7.0
2019-05-31 00:30 4.13 15.38 245 6.34 57.9 0.21 314.0
2019-05-31 00:00 4.13 15.38 246 5.69 57.7 0.39 306.0
2019-05-30 23:30 4.10 16.67 247 5.77 57.0 0.51 313.0
2019-05-30 23:00 3.87 15.38 247 5.77 56.5 0.33 319.0
2019-05-30 22:30 4.07 15.38 241 6.00 56.5 0.64 291.0
2019-05-30 22:00 4.10 15.38 239 6.11 56.1 0.23 159.0
2019-05-30 21:30 4.10 16.67 249 6.40 56.1 0.29 142.0
2019-05-30 21:00 3.90 15.38 240 5.87 56.3 0.31 150.0
2019-05-30 20:30 4.04 15.38 244 6.18 56.3 0.19 171.0
2019-05-30 20:00 4.13 15.38 239 6.14 56.3 0.12 142.0
2019-05-30 19:30 4.20 16.67 246 6.05 56.3 0.10 124.0
2019-05-30 19:00 4.27 15.38 250 6.27 56.5 0.23 124.0
2019-05-30 18:30 4.33 15.38 251 6.26 56.5 0.33 111.0
2019-05-30 18:00 4.33 16.67 254 6.16 56.5 0.51 106.0
2019-05-30 17:30 4.49 16.67 252 6.23 56.7 0.49 103.0
2019-05-30 17:00 4.49 16.67 256 6.01 56.8 0.54 105.0
2019-05-30 16:30 4.49 15.38 256 6.18 56.8 0.39 98.0
2019-05-30 16:00 4.36 15.38 252 5.63 57.0 0.31 116.0
2019-05-30 15:30 4.79 16.67 262 6.13 57.0 0.25 117.0
2019-05-30 15:00 4.59 15.38 250 5.42 57.0 0.16 175.0
2019-05-30 14:30 4.92 15.38 234 5.88 57.0 0.25 272.0
2019-05-30 14:00 5.15 15.38 241 6.19 57.0 0.52 282.0
2019-05-30 13:30 5.15 15.38 236 5.92 57.0 0.66 276.0
2019-05-30 13:00 5.02 15.38 237 5.84 56.7 0.62 273.0
2019-05-30 12:30 5.41 15.38 240 5.91 56.3 0.74 264.0
2019-05-30 12:00 5.94 15.38 251 6.21 55.6 0.64 267.0
2019-05-30 11:30 5.77 15.38 244 6.11 55.6 0.80 261.0
2019-05-30 11:00 6.04 7.69 285 6.17 56.1 0.70 273.0
2019-05-30 10:30 5.94 7.69 287 6.07 55.8 0.54 239.0
2019-05-30 10:00 5.64 7.69 286 5.96 55.8 0.66 238.0
2019-05-30 09:30 5.94 15.38 250 6.14 55.9 0.82 221.0
2019-05-30 09:00 6.20 8.33 284 6.05 55.2 0.82 209.0
2019-05-30 08:30 5.77 8.33 285 5.81
2019-05-30 07:30 6.59 8.33 284 6.19 55.2 0.99 188.0
2019-05-30 07:00 6.14 15.38 248 6.16 55.0 0.97 183.0
2019-05-30 06:30 6.33 8.33 291 5.89 54.7 0.95 173.0
2019-05-30 06:00 6.23 7.69 295 5.98 54.7 0.91 170.0
2019-05-30 05:30 6.63 8.33 290 6.19 54.9 0.78 156.0
2019-05-30 05:00 6.33 8.33 295 6.01 55.2 0.89 149.0
2019-05-30 04:30 6.40 7.69 298 5.90 55.2 0.84 133.0
2019-05-30 04:00 6.53 8.33 294 5.82 55.4 0.87 134.0
2019-05-30 03:30 6.00 7.69 298 5.64 55.6 0.93 125.0
2019-05-30 03:00 6.04 7.69 296 5.55 55.8 0.91 122.0
2019-05-30 02:30 5.84 15.38 241 5.51 56.1 0.80 112.0
2019-05-30 02:00 6.27 16.67 244 5.66 56.5 0.70 106.0
2019-05-30 01:30 6.43 8.33 287 5.57 57.0 0.54 103.0
2019-05-30 01:00 6.50 16.67 250 5.60 57.4 0.37 112.0
2019-05-30 00:30 6.20 8.33 286 5.37 57.4 0.35 113.0
2019-05-30 00:00 6.53 7.69 288 5.53 57.6 0.37 101.0
2019-05-29 23:30 6.33 15.38 253 5.47 57.9 0.37 104.0
2019-05-29 23:00 6.40 16.67 254 5.62 57.9 0.19 99.0
2019-05-29 22:30 5.97 8.33 286 5.59 58.1 0.14 224.0
2019-05-29 22:00 5.58 15.38 251 5.65 58.6 0.17 278.0
2019-05-29 21:30 5.68 16.67 245 6.05 58.3 0.62 268.0
2019-05-29 21:00 5.25 7.69 283 5.79 57.6 0.56 304.0
2019-05-29 20:30 5.54 16.67 242 5.96 57.6 0.64 302.0
2019-05-29 20:00 5.28 16.67 241 6.15 57.0 0.74 261.0
2019-05-29 19:30 5.25 7.69 285 5.87 57.4 0.25 304.0
2019-05-29 19:00 4.89 16.67 237 6.15 57.6 0.52 313.0
2019-05-29 18:30 5.41 16.67 247 6.67 57.7 0.60 315.0
2019-05-29 18:00 5.35 16.67 241 6.60 57.9 0.58 314.0
2019-05-29 17:30 5.51 16.67 244 6.70 57.9 0.58 319.0
2019-05-29 17:00 5.09 16.67 240 6.28 57.9 0.76 323.0
2019-05-29 16:30 5.02 16.67 236 6.28 57.7 0.64 338.0
2019-05-29 16:00 5.31 16.67 246 6.57 57.4 0.78 330.0
2019-05-29 15:30 5.12 16.67 246 6.36 57.4 0.82 324.0
2019-05-29 15:00 5.05 16.67 248 6.27 57.4 0.91 321.0
2019-05-29 14:30 5.15 16.67 247 6.61 57.4 0.99 319.0
2019-05-29 14:00 5.05 16.67 253 6.31 57.4 1.11 311.0
2019-05-29 13:30 5.12 7.14 296 6.46 57.7 1.34 294.0
2019-05-29 13:00 5.15 7.69 290 6.67 57.7 1.50 291.0
2019-05-29 12:30 5.02 8.33 293 6.52 57.6 1.71 284.0
2019-05-29 12:00 5.51 7.69 295 6.60 57.4 1.81 282.0
2019-05-29 11:30 5.41 7.14 291 6.76 57.6 1.96 282.0
2019-05-29 11:00 5.35 7.69 290 6.68 56.8 1.73 278.0
2019-05-29 10:30 4.89 7.69 291 6.40 56.8 1.56 281.0
2019-05-29 10:00 5.02 16.67 242 6.76 57.0 0.76 282.0
2019-05-29 09:30 4.89 16.67 240 6.71 57.0 0.74 262.0
2019-05-29 09:00 4.99 16.67 246 6.83 56.5 1.09 254.0
2019-05-29 08:30 5.15 7.14 284 6.57 56.1 0.99 231.0
2019-05-29 08:00 5.22 7.69 286 6.55 56.3 0.91 218.0
2019-05-29 07:30 5.09 16.67 254 6.23 56.3 0.97 202.0
2019-05-29 07:00 5.02 7.14 286 5.74 56.1 0.97 190.0
2019-05-29 06:30 5.18 6.67 293 5.81 55.8 0.91 181.0
2019-05-29 06:00 5.38 7.69 292 5.90 55.8 0.93 161.0
2019-05-29 05:30 5.35 7.69 292 5.74 56.1 0.76 146.0
2019-05-29 05:00 5.09 7.69 295 5.40 56.7 0.84 132.0
2019-05-29 04:30 5.12 7.69 290 5.44 57.2 0.84 118.0
2019-05-29 04:00 4.95 7.69 290 5.41 57.4 0.87 114.0
2019-05-29 03:30 4.86 7.14 291 5.28 57.4 0.89 107.0
2019-05-29 03:00 5.02 16.67 243 5.31 57.9 0.99 104.0
2019-05-29 02:30 4.92 7.69 289 5.26 58.3 0.99 103.0
2019-05-29 02:00 4.92 7.69 286 5.36 58.8 0.76 99.0
2019-05-29 01:30 5.31 7.14 286 5.49 59.2 0.80 89.0
2019-05-29 01:00 5.22 7.14 286 5.37 59.7 0.66 62.0
2019-05-29 00:30 5.31 7.14 288 5.44 59.9 0.29 23.0
2019-05-29 00:00 5.02 7.14 288 5.45 59.9 0.51 313.0
2019-05-28 23:30 5.38 7.14 289 5.64 59.9 0.86 288.0
2019-05-28 23:00 4.95 14.29 226 5.94 60.1 1.17 291.0
2019-05-28 22:30 4.99 7.14 287 5.80 59.9 1.21 283.0
2019-05-28 22:00 5.12 14.29 226 5.83 59.2 1.36 280.0
2019-05-28 21:30 5.09 6.67 287 5.84 58.6 1.13 280.0
2019-05-28 21:00 5.02 6.67 285 5.99 59.7 1.01 266.0
2019-05-28 20:30 4.92 6.67 284 5.94 59.9 1.07 271.0
2019-05-28 20:00 4.92 6.67 283 6.00 60.8 0.97 274.0
2019-05-28 19:30 4.63 13.33 236 6.24 58.3 0.27 210.0
2019-05-28 19:00 4.56 7.14 285 6.58 58.1 0.17 250.0
2019-05-28 18:30 4.27 7.14 283 6.36 57.9 0.16 238.0
2019-05-28 18:00 4.59 7.14 286 6.52 57.7 0.23 246.0
2019-05-28 17:30 4.17 7.14 283 6.52 57.7 0.21 239.0
2019-05-28 17:00 4.43 7.14 283 6.41 57.4 0.25 274.0
2019-05-28 16:30 4.53 7.14 288 6.40 57.4 0.27 283.0
2019-05-28 16:00 4.30 6.67 289 6.36 57.2 0.37 289.0
2019-05-28 15:30 4.49 6.67 289 6.07 56.8 0.23 308.0
2019-05-28 15:00 4.36 6.25 288 6.19 57.0 0.10 300.0
2019-05-28 14:30 4.36 6.67 289 5.89 57.0 0.17 359.0
2019-05-28 14:00 4.43 6.67 288 6.19 57.0 0.12 334.0
2019-05-28 13:30 4.49 6.67 287 6.13 57.0 0.16 319.0
2019-05-28 13:00 4.66 6.67 287 5.73 56.8 0.19 328.0
2019-05-28 12:30 4.56 6.67 286 5.44 56.8 0.29 309.0
2019-05-28 12:00 4.72 6.25 285 5.31 57.0 0.16 306.0
2019-05-28 11:30 4.69 6.25 287 5.21 56.8 0.49 279.0
2019-05-28 11:00 4.76 5.88 284 5.41 56.5 0.37 285.0
2019-05-28 10:30 5.05 6.25 288 5.58 56.5 0.43 265.0
2019-05-28 10:00 4.92 6.25 284 5.65 56.5 0.51 252.0
2019-05-28 09:30 5.02 6.67 285 5.45 56.5 0.64 239.0
2019-05-28 09:00 5.12 6.25 287 5.56 56.5 0.76 232.0
2019-05-28 08:30 5.05 6.25 289 5.57 56.7 0.78 224.0
2019-05-28 08:00 5.02 6.25 285 5.39 56.5 0.82 230.0
2019-05-28 07:30 4.99 6.67 282 5.52 56.7 0.99 209.0
2019-05-28 07:00 4.95 6.25 284 5.43 56.3 1.15 204.0
2019-05-28 06:30 4.86 5.88 288 5.14 55.2 0.66 165.0
2019-05-28 06:00 4.86 6.25 292 5.29 55.6 0.66 156.0
2019-05-28 05:30 4.46 14.29 234 5.22 56.1 0.86 146.0
2019-05-28 05:00 4.27 15.38 222 5.00 56.8 0.89 131.0
2019-05-28 04:30 4.10 14.29 243 4.99 57.0 0.97 122.0
2019-05-28 04:00 3.97 15.38 234 5.02 57.2 0.86 115.0
2019-05-28 03:30 4.10 15.38 237 5.02 57.2 0.89 112.0
2019-05-28 03:00 4.13 14.29 234 5.00 57.4 0.93 97.0
2019-05-28 02:30 4.17 15.38 242 4.76 57.9 0.87 95.0
2019-05-28 02:00 4.13 5.88 285 4.82 58.3 0.84 89.0
2019-05-28 01:30 4.04 15.38 244 4.89 58.6 0.76 80.0
2019-05-28 01:00 3.84 15.38 243 5.02 58.8 0.66 68.0
2019-05-28 00:30 4.00 15.38 246 5.16 58.8 0.45 61.0
2019-05-28 00:00 3.97 14.29 242 5.11 59.0 0.17 38.0
2019-05-27 23:30 4.00 11.76 271 4.90 59.0 0.31 335.0
2019-05-27 23:00 4.40 15.38 238 5.24 58.8 0.47 299.0
2019-05-27 22:30 4.43 14.29 246 5.20 59.0 0.86 278.0
2019-05-27 22:00 4.69 14.29 221 5.52 59.2 1.01 274.0
2019-05-27 21:30 4.76 14.29 240 5.59 59.4 1.30 269.0
2019-05-27 21:00 4.72 15.38 244 5.71 59.2 1.59 271.0
2019-05-27 20:30 4.66 14.29 232 5.87 59.2 1.65 273.0
2019-05-27 20:00 4.23 14.29 241 5.81 59.2 1.83 271.0
2019-05-27 19:30 4.17 14.29 225 6.05 58.8 1.56 272.0
2019-05-27 19:00 4.04 14.29 237 5.90 59.0 1.09 269.0
2019-05-27 18:30 3.84 15.38 244 5.82 57.0 0.25 265.0
2019-05-27 18:00 3.64 14.29 239 5.85 57.0 0.33 254.0
2019-05-27 17:30 3.81 14.29 238 6.05 57.0 0.25 264.0
2019-05-27 17:00 3.77 14.29 237 6.52 57.2 0.33 269.0
2019-05-27 16:30 3.77 14.29 235 6.31 57.0 0.39 268.0
2019-05-27 16:00 3.77 15.38 241 6.46 56.8 0.37 259.0
2019-05-27 15:30 4.07 15.38 238 6.55 56.8 0.27 270.0
2019-05-27 15:00 4.07 14.29 234 5.95 56.8 0.19 291.0
2019-05-27 14:30 3.84 16.67 231 5.56 56.8 0.16 326.0
2019-05-27 14:00 3.74 15.38 244 5.49 56.8 0.08 297.0
2019-05-27 13:30 3.97 14.29 233 6.05 56.8 0.16 311.0
2019-05-27 13:00 3.94 15.38 236 5.95 57.0 0.29 313.0
2019-05-27 12:30 4.13 15.38 240 5.91 57.0 0.37 288.0
2019-05-27 12:00 4.36 15.38 236 6.33 56.8 0.49 313.0
2019-05-27 11:30 4.00 15.38 231 6.01 56.8 0.52 295.0
2019-05-27 11:00 4.33 15.38 243 6.21 57.0 0.74 302.0
2019-05-27 10:30 4.13 15.38 240 6.11 57.2 0.78 293.0
2019-05-27 10:00 4.00 15.38 230 6.11 57.2 1.01 288.0
2019-05-27 09:30 4.33 15.38 229 6.54 57.2 1.05 278.0
2019-05-27 09:00 4.46 15.38 227 6.61 57.2 0.97 275.0
2019-05-27 08:30 4.20 6.67 278 6.35 57.0 0.89 274.0
2019-05-27 08:00 4.53 15.38 245 6.91 55.9 0.33 206.0
2019-05-27 07:30 4.49 15.38 241 6.70 55.8 0.33 183.0
2019-05-27 07:00 4.33 15.38 239 6.60 55.9 0.39 159.0
2019-05-27 06:30 4.30 15.38 241 6.69 56.1 0.49 132.0
2019-05-27 06:00 4.43 15.38 247 6.73 56.5 0.54 123.0
2019-05-27 05:30 4.36 15.38 241 6.34 56.7 0.68 120.0
2019-05-27 05:00 4.49 7.69 286 6.30 57.0 0.78 121.0
2019-05-27 04:30 4.49 8.33 287 6.30 57.2 0.80 113.0
2019-05-27 04:00 4.46 15.38 246 6.34 57.6 0.93 103.0
2019-05-27 03:30 4.59 8.33 281 6.20 57.6 1.01 92.0
2019-05-27 03:00 4.66 15.38 244 6.37 57.4 1.03 89.0
2019-05-27 02:30 4.69 15.38 241 6.30 57.6 1.03 82.0
2019-05-27 02:00 4.63 8.33 282 5.97 57.7 1.05 74.0
2019-05-27 01:30 4.72 15.38 236 5.93 57.9 1.03 70.0
2019-05-27 01:00 4.92 14.29 234 5.74 57.9 0.97 67.0
2019-05-27 00:30 5.05 15.38 237 5.91 58.1 0.84 57.0
2019-05-27 00:00 5.22 15.38 237 5.72 58.1 0.68 59.0
2019-05-26 23:30 5.64 8.33 287 6.04 58.3 0.37 42.0
2019-05-26 23:00 5.74 8.33 283 6.01 58.3 0.35 358.0
2019-05-26 22:30 6.00 9.09 289 6.19 58.5 0.33 321.0
2019-05-26 22:00 5.91 8.33 290 6.01 58.8 0.58 296.0
2019-05-26 21:30 5.97 15.38 238 6.37 58.8 0.86 287.0
2019-05-26 21:00 5.64 7.69 287 6.17 58.8 1.03 276.0
2019-05-26 20:30 5.77 15.38 240 6.20 58.8 1.34 276.0
2019-05-26 20:00 5.77 7.14 291 6.41 59.0 1.44 280.0
2019-05-26 19:30 5.77 7.69 294 6.19 58.6 1.38 278.0
2019-05-26 19:00 5.81 15.38 232 6.19 57.2 0.80 269.0
2019-05-26 18:30 5.74 15.38 231 5.95 55.8 0.72 251.0
2019-05-26 18:00 5.77 15.38 236 5.90 55.2 0.66 225.0
2019-05-26 17:30 5.64 7.69 283 5.63 54.9 0.54 206.0
2019-05-26 17:00 5.64 15.38 240 5.68 54.7 0.60 193.0
2019-05-26 16:30 5.84 15.38 240 5.81 54.7 0.72 178.0
2019-05-26 16:00 5.64 15.38 236 5.60 54.9 0.68 172.0
2019-05-26 15:30 5.81 14.29 229 5.59 55.0 0.84 167.0
2019-05-26 15:00 5.91 8.33 290 5.54 55.2 0.84 156.0
2019-05-26 14:30 6.17 15.38 238 5.83 55.2 0.80 159.0
2019-05-26 14:00 6.33 15.38 230 5.63 55.4 0.97 156.0
2019-05-26 13:30 5.97 15.38 225 5.55 55.6 0.99 153.0
2019-05-26 13:00 5.91 16.67 231 5.59 55.8 0.99 150.0
2019-05-26 12:30 6.00 15.38 226 5.58 55.9 1.05 147.0
2019-05-26 12:00 6.27 16.67 234 5.62 56.1 0.93 141.0
2019-05-26 11:30 6.69 16.67 233 5.62 56.5 0.86 130.0
2019-05-26 11:00 7.25 6.67 289 5.70 56.5 0.82 120.0
2019-05-26 10:30 7.38 5.88 289 5.62 57.0 0.84 116.0
2019-05-26 10:00 7.02 5.88 287 5.63 57.2 0.72 117.0
2019-05-26 09:30 7.15 6.67 289 5.81 57.4 0.60 118.0
2019-05-26 09:00 7.64 6.67 287 5.91 57.7 0.33 156.0
2019-05-26 08:30 7.38 6.67 288 5.77 57.7 0.31 169.0
2019-05-26 08:00 7.28 9.09 286 6.07 57.9 0.29 174.0
2019-05-26 07:30 7.35 9.09 283 6.20 57.9 0.33 185.0
2019-05-26 07:00 6.86 9.09 281 6.34 57.9 0.51 171.0
2019-05-26 06:30 6.43 9.09 282 6.50 57.9 0.72 183.0
2019-05-26 06:00 6.04 9.88 284 6.79 58.1 0.86 180.0
2019-05-26 05:30 6.14 9.09 282 6.62 58.1 0.95 179.0
2019-05-26 05:00 5.61 9.09 287 6.18 57.9 1.09 175.0
2019-05-26 04:30 6.17 15.38 229 6.41 57.9 0.91 147.0
2019-05-26 04:00 6.33 7.69 290 6.22 57.9 1.05 135.0
2019-05-26 03:00 6.04 9.09 287 6.15 58.3 1.13 103.0
2019-05-26 02:30 6.30 9.09 286 6.24 58.5 1.03 101.0
2019-05-26 02:00 6.04 16.67 243 6.17
2019-05-26 01:00 5.77 9.09 282 6.06 59.5 0.99 75.0
2019-05-26 00:30 5.81 9.88 278 6.00 59.7 0.78 71.0
2019-05-26 00:00 5.74 9.09 289 6.03 59.9 0.68 62.0
2019-05-25 23:00 5.61 15.38 231 6.27 60.6 0.43 350.0
2019-05-25 22:30 5.58 9.88 288 6.16 60.4 0.60 311.0
2019-05-25 22:00 5.61 9.88 291 6.53 60.6 0.84 302.0
2019-05-25 21:30 5.58 9.09 292 6.59 60.6 1.24 287.0
2019-05-25 21:00 5.81 9.88 290 6.71 60.4 1.59 281.0
2019-05-25 20:30 5.87 9.09 296 6.72 60.3 2.06 278.0
2019-05-25 20:00 5.74 9.88 289 6.77 60.4 2.33 274.0
2019-05-25 19:30 5.74 9.09 291 6.80 59.5 2.39 269.0
2019-05-25 19:00 5.94 8.33 294 6.86 59.9 2.53 271.0
2019-05-25 18:30 5.91 15.38 233 6.94 59.2 2.41 270.0
2019-05-25 18:00 5.91 8.33 292 6.63 58.1 2.06 268.0
2019-05-25 17:30 6.10 9.09 291 6.75 58.3 2.08 268.0
2019-05-25 17:00 6.10 9.09 291 6.54 57.4 0.78 258.0
2019-05-25 16:30 5.94 15.38 236 6.67 57.6 0.64 234.0
2019-05-25 16:00 6.04 9.09 284 6.72 57.2 0.74 221.0
2019-05-25 15:30 6.17 9.09 283 6.52 57.2 0.93 213.0
2019-05-25 15:00 6.50 8.33 285 6.63 57.0 1.07 200.0
2019-05-25 14:30 6.43 16.67 241 6.38 56.7 0.86 198.0
2019-05-25 14:00 6.40 16.67 246 5.98 56.5 0.82 187.0
2019-05-25 13:30 6.17 8.33 290 5.70 56.5 0.89 165.0
2019-05-25 13:00 6.23 9.09 292 5.64 56.5 0.97 154.0
2019-05-25 12:30 6.46 7.69 295 5.71 56.7 0.86 148.0
2019-05-25 12:00 6.36 7.69 289 5.52 56.8 0.82 132.0
2019-05-25 11:30 6.59 7.14 286 5.94 57.2 0.62 129.0
2019-05-25 11:00 6.73 7.14 288 5.98 57.6 0.35 118.0
2019-05-25 10:30 6.59 7.69 285 5.92 57.9 0.29 124.0
2019-05-25 10:00 5.87 6.25 282 5.88 57.9 0.17 107.0
2019-05-25 09:30 5.54 16.67 233 6.17 57.9 0.00 341.0
2019-05-25 09:00 4.92 16.67 235 6.26 57.9 0.21 300.0
2019-05-25 08:30 4.53 16.67 237 6.30 57.9 0.27 272.0
2019-05-25 08:00 4.27 16.67 232 6.48 57.9 0.41 255.0
2019-05-25 07:30 4.27 16.67 231 6.74 57.9 0.58 259.0
2019-05-25 07:00 4.00 15.38 226 6.59 57.9 0.74 260.0
2019-05-25 06:30 4.00 16.67 224 6.41 58.1 1.05 263.0
2019-05-25 06:00 4.23 16.67 232 6.78 57.2 0.66 246.0
2019-05-25 05:30 3.97 16.67 239 6.50 57.2 0.80 229.0
2019-05-25 05:00 4.17 16.67 240 6.53 57.9 0.76 231.0
2019-05-25 04:30 4.23 16.67 245 6.29 56.5 0.19 206.0
2019-05-25 04:00 4.23 18.18 236 6.14 56.3 0.12 184.0
2019-05-25 03:30 4.43 16.67 246 6.84 56.8 0.35 70.0
2019-05-25 03:00 4.20 16.67 243 7.21 57.0 0.49 62.0
2019-05-25 02:30 4.04 16.67 240 7.69 57.2 0.70 54.0
2019-05-25 02:00 4.13 16.67 235 8.00 57.2 0.80 48.0
2019-05-25 01:30 4.04 16.67 231 7.70 57.4 0.91 47.0
2019-05-25 01:00 3.94 16.67 233 7.34 57.7 1.07 43.0
2019-05-25 00:30 4.10 16.67 235 7.54 58.3 1.19 42.0
2019-05-25 00:00 3.84 15.38 240 7.46 58.5 1.13 38.0
2019-05-24 23:30 3.94 14.29 228 7.74 60.6 0.99 38.0
2019-05-24 23:00 3.97 14.29 219 7.35 60.8 0.64 10.0
2019-05-24 22:30 4.33 16.67 225 7.13 60.6 0.78 342.0
2019-05-24 22:00 4.53 14.29 217 7.07 61.3 0.87 324.0
2019-05-24 21:30 4.43 18.18 230 6.97 61.2 1.19 314.0
2019-05-24 21:00 4.72 9.09 277 7.00 61.5 1.36 300.0
2019-05-24 20:30 5.25 16.67 232 7.43 61.2 1.59 290.0
2019-05-24 20:00 5.22 14.29 224 7.28 60.6 1.90 284.0
2019-05-24 19:30 5.22 9.09 296 7.18 60.1 2.24 280.0
2019-05-24 19:00 5.64 9.09 290 7.44 59.9 2.45 278.0
2019-05-24 18:30 5.81 9.09 288 7.46 59.9 2.88 270.0
2019-05-24 18:00 6.14 9.88 282 7.94 59.7 2.95 273.0
2019-05-24 17:30 5.81 9.88 285 7.94 59.2 2.74 274.0
2019-05-24 17:00 5.54 9.88 286 7.63 58.5 2.55 274.0
2019-05-24 16:30 5.74 9.88 285 7.55 58.1 2.37 275.0
2019-05-24 16:00 5.12 9.09 284 7.79 57.6 2.18 279.0
2019-05-24 15:30 5.28 9.88 282 7.61 57.0 1.61 285.0
2019-05-24 15:00 5.54 9.88 280 7.67 57.2 1.71 283.0
2019-05-24 14:30 5.28 16.67 237 7.54 57.0 1.61 279.0
2019-05-24 14:00 5.84 9.88 287 7.71 57.0 1.13 281.0
2019-05-24 13:30 5.64 9.88 284 7.84 57.0 1.07 279.0
2019-05-24 13:00 5.51 9.88 287 7.34 57.0 0.91 279.0
2019-05-24 12:30 5.77 9.88 285 7.42 57.0 0.89 281.0
2019-05-24 12:00 5.77 9.88 280 7.37 56.8 0.58 291.0
2019-05-24 11:30 5.87 9.88 286 7.51 56.8 0.37 303.0
2019-05-24 11:00 5.87 10.53 283 7.11 56.8 0.17 335.0
2019-05-24 10:30 6.14 9.88 286 7.34 57.0 0.14 315.0
2019-05-24 10:00 6.00 9.88 286 7.38 57.0 0.23 305.0
2019-05-24 09:30 6.36 10.53 279 7.37 57.0 0.21 295.0
2019-05-24 09:00 6.59 9.88 285 7.18 57.0 0.16 294.0
2019-05-24 08:30 6.46 9.88 288 7.05 57.0 0.31 328.0
2019-05-24 08:00 6.07 10.53 283 6.87 57.2 0.47 335.0
2019-05-24 07:30 6.86 10.53 278 7.44 57.2 0.62 327.0
2019-05-24 07:00 6.99 10.53 276 7.48 57.4 0.74 316.0
2019-05-24 06:30 6.17 10.53 278 7.07 57.6 0.78 302.0
2019-05-24 06:00 6.76 10.53 276 7.76 57.7 0.97 301.0
2019-05-24 05:30 6.79 11.11 270 8.01 58.1 1.01 290.0
2019-05-24 05:00 6.69 10.53 279 7.47 58.3 0.25 191.0
2019-05-24 04:30 6.79 10.53 283 8.15 57.9 0.37 148.0
2019-05-24 04:00 6.69 10.53 277 8.13 57.6 0.25 112.0
2019-05-24 03:30 6.40 11.11 276 8.25 57.9 0.31 56.0
2019-05-24 03:00 7.12 10.53 280 8.25 57.9 0.49 45.0
2019-05-24 02:30 7.12 11.11 279 8.05 57.6 0.72 31.0
2019-05-24 02:00 7.55 10.53 280 8.06 57.6 0.78 23.0
2019-05-24 01:30 7.25 10.53 285 7.88 58.3 0.82 23.0
2019-05-24 01:00 7.38 11.11 283 8.14 59.2 1.01 24.0
2019-05-24 00:30 7.19 10.53 279 8.11 59.4 1.09 27.0
2019-05-24 00:00 8.14 10.53 283 8.38 59.7 1.17 36.0
2019-05-23 23:30 7.58 11.11 281 7.84 59.2 1.36 35.0
2019-05-23 23:00 8.01 10.53 280 8.39 60.3 1.42 32.0
2019-05-23 22:30 7.61 10.53 286 8.12 60.4 1.17 32.0
2019-05-23 22:00 8.23 10.53 282 8.15 61.2 0.80 18.0
2019-05-23 21:30 7.64 10.53 286 7.69 61.0 0.91 3.0
2019-05-23 21:00 8.14 11.11 278 8.11 61.0 0.82 354.0
2019-05-23 20:30 8.43 10.53 279 8.11 60.8 0.93 340.0
2019-05-23 20:00 8.40 11.11 275 8.22 60.4 1.17 322.0
2019-05-23 19:30 8.79 10.53 275 8.42 60.3 1.38 308.0
2019-05-23 19:00 8.17 11.11 273 7.85 60.4 1.87 291.0
2019-05-23 18:30 8.79 11.11 277 8.00 60.1 2.10 287.0
2019-05-23 18:00 9.02 10.53 283 8.10 59.7 2.31 279.0
2019-05-23 17:30 9.68 10.53 284 8.39 59.0 2.57 275.0
2019-05-23 17:00 9.22 10.53 279 8.40 58.3 2.22 277.0
2019-05-23 16:30 9.19 9.88 283 8.60 57.6 2.37 271.0
2019-05-23 16:00 9.81 11.11 282 8.73 57.6 2.27 271.0
2019-05-23 15:30 9.32 11.11 277 8.42 57.2 2.43 262.0
2019-05-23 15:00 11.02 10.53 279 8.97 57.0 2.41 271.0
2019-05-23 14:30 9.68 10.53 279 8.71 57.4 1.98 272.0
2019-05-23 14:00 9.65 11.11 278 8.59 57.6 1.05 250.0
2019-05-23 13:30 9.55 11.76 282 8.54 55.0 1.01 219.0
2019-05-23 13:00 9.45 11.76 277 8.39 54.7 0.78 197.0
2019-05-23 12:30 9.65 11.11 275 8.30 54.0 0.56 194.0
2019-05-23 12:00 9.15 10.53 279 8.03 54.0 0.35 176.0
2019-05-23 11:30 9.02 11.11 284 7.67 54.1 0.37 154.0
2019-05-23 11:00 9.65 10.53 286 7.76 54.3 0.45 124.0
2019-05-23 10:30 9.38 11.11 287 7.73 54.5 0.43 127.0
2019-05-23 10:00 9.94 11.11 284 8.11 54.7 0.54 128.0
2019-05-23 09:30 9.78 11.11 286 8.16 54.9 0.66 129.0
2019-05-23 09:00 9.06 10.53 285 7.81 54.9 0.52 121.0
2019-05-23 08:30 10.27 10.53 286 8.32 55.0 0.58 119.0
2019-05-23 08:00 8.79 11.76 283 7.94 55.2 0.66 115.0
2019-05-23 07:30 10.24 11.11 286 8.54 55.4 0.60 125.0
2019-05-23 07:00 9.74 11.76 286 8.14 55.8 0.52 129.0
2019-05-23 06:30 9.81 11.11 285 8.23 55.9 0.54 123.0
2019-05-23 06:00 8.92 11.76 286 7.78 56.1 0.58 135.0
2019-05-23 05:30 9.55 11.76 284 8.00 55.9 0.45 118.0
2019-05-23 05:00 9.51 11.11 281 8.09 56.1 0.43 122.0
2019-05-23 04:30 9.35 11.11 282 7.79 56.3 0.47 124.0
2019-05-23 04:00 10.53 11.76 281 8.61 56.5 0.39 124.0
2019-05-23 03:30 9.84 11.11 282 8.06 56.7 0.23 135.0
2019-05-23 03:00 9.91 11.76 282 8.21 56.7 0.37 116.0
2019-05-23 02:30 10.56 11.11 284 8.50 57.0 0.39 148.0
2019-05-23 02:00 10.24 11.76 282 8.35 57.2 0.47 133.0
2019-05-23 01:30 9.45 10.53 285 8.25 57.4 0.64 123.0
2019-05-23 01:00 9.55 10.53 284 8.11 57.7 0.74 119.0
2019-05-23 00:30 9.42 11.11 284 8.29 57.9 0.84 100.0
2019-05-23 00:00 9.74 11.76 280 8.18 57.9 0.93 98.0
2019-05-22 23:30 9.38 11.11 280 7.99 57.9 1.11 96.0
2019-05-22 23:00 9.84 11.76 279 8.17 58.3 1.01 90.0
2019-05-22 22:30 9.55 12.50 275 8.00 58.3 1.17 88.0
2019-05-22 22:00 9.68 11.76 277 8.04 58.3 1.19 78.0
2019-05-22 21:30 9.48 12.50 273 8.16 58.6 1.11 71.0
2019-05-22 21:00 9.09 12.50 277 7.96 59.0 1.01 65.0
2019-05-22 20:30 8.46 11.76 275 7.81 59.2 0.89 57.0
2019-05-22 20:00 9.22 12.50 277 8.26 59.4 0.64 28.0
2019-05-22 19:30 9.22 12.50 277 8.47 59.2 0.62 341.0
2019-05-22 19:00 9.45 12.50 281 8.60 59.2 0.78 302.0
2019-05-22 18:30 9.48 12.50 279 8.87 59.2 1.11 294.0
2019-05-22 18:00 10.14 13.33 280 9.32 59.0 1.28 288.0
2019-05-22 17:30 9.32 12.50 281 8.73 58.8 1.65 279.0
2019-05-22 17:00 9.45 12.50 275 9.37 58.6 1.75 275.0
2019-05-22 16:30 9.74 12.50 275 9.36 58.1 1.69 271.0
2019-05-22 16:00 9.58 12.50 274 9.23 57.6 1.38 266.0
2019-05-22 15:30 9.97 13.33 272 9.66 57.6 1.61 266.0
2019-05-22 15:00 10.20 13.33 268 9.58 57.2 1.56 260.0
2019-05-22 14:30 10.04 13.33 272 9.56 57.0 1.83 263.0
2019-05-22 14:00 9.91 13.33 270 9.21 56.8 1.90 268.0
2019-05-22 13:30 10.20 12.50 277 9.44 57.2 1.98 259.0
2019-05-22 13:00 10.17 11.11 283 8.80 55.2 1.28 217.0
2019-05-22 12:30 11.02 13.33 269 8.96 55.2 1.03 193.0
2019-05-22 12:00 10.53 13.33 270 8.99 55.4 0.97 181.0
2019-05-22 11:30 10.37 13.33 268 8.83 55.6 0.87 178.0
2019-05-22 11:00 9.71 13.33 270 8.21 55.6 0.82 168.0
2019-05-22 10:30 11.19 12.50 277 8.95 55.6 0.97 160.0
2019-05-22 10:00 10.93 14.29 276 9.01 55.8 0.86 144.0
2019-05-22 09:30 10.99 13.33 280 8.84 55.8 1.01 145.0
2019-05-22 09:00 11.06 13.33 278 9.08 55.9 0.89 138.0
2019-05-22 08:30 11.32 14.29 282 9.29 56.1 0.89 134.0
2019-05-22 08:00 10.56 13.33 284 9.05 56.1 0.97 131.0
2019-05-22 07:30 11.09 14.29 279 9.12 56.5 0.86 127.0
2019-05-22 07:00 11.55 13.33 281 9.06 56.3 1.01 129.0
2019-05-22 06:30 11.35 14.29 282 9.38 56.7 1.11 128.0
2019-05-22 06:00 12.53 14.29 276 9.42 56.8 0.86 138.0
2019-05-22 05:30 12.53 14.29 281 9.46 56.8 1.05 138.0
2019-05-22 05:00 12.34 14.29 280 9.69 57.0 1.09 133.0
2019-05-22 04:30 13.91 14.29 280 9.85 57.0 1.01 146.0
2019-05-22 04:00 12.30 14.29 281 8.83 57.2 0.99 145.0
2019-05-22 03:30 13.45 14.29 275 9.54 57.2 0.89 150.0
2019-05-22 03:00 14.44 14.29 276 10.25 57.2 0.86 160.0
2019-05-22 02:30 13.32 14.29 277 9.33 57.4 0.95 159.0
2019-05-22 02:00 14.27 14.29 278 9.85 57.4 0.80 156.0
2019-05-22 01:30 15.03 14.29 274 10.16 57.6 0.64 158.0
2019-05-22 01:00 13.29 15.38 268 9.57 57.6 0.74 146.0
2019-05-22 00:30 14.07 15.38 279 9.47 57.6 0.70 139.0
2019-05-22 00:00 13.62 15.38 275 9.79 57.6 0.76 136.0
2019-05-21 23:30 13.06 14.29 278 9.35 57.6 0.76 123.0
2019-05-21 23:00 11.58 14.29 278 8.91 57.6 0.89 112.0
2019-05-21 22:30 11.55 15.38 275 9.28 57.6 0.80 105.0
2019-05-21 22:00 10.17 15.38 278 8.31 57.6 0.89 101.0
2019-05-21 21:30 9.81 15.38 277 8.11 57.7 0.97 93.0
2019-05-21 21:00 8.83 16.67 272 7.70 58.1 0.93 89.0
2019-05-21 20:30 7.81 16.67 268 6.74 58.3 0.91 87.0
2019-05-21 20:00 7.35 16.67 273 6.40 58.3 0.91 76.0
2019-05-21 19:30 7.48 16.67 260 6.40 58.3 0.87 76.0
2019-05-21 19:00 6.66 16.67 253 5.77 58.3 0.66 62.0
2019-05-21 18:30 6.73 11.11 276 6.05 58.3
2019-05-21 18:00 6.69 6.25 276 5.91 58.3 0.29 354.0
2019-05-21 17:30 6.92 18.18 247 6.09 58.3 0.43 321.0
2019-05-21 17:00 6.59 16.67 231 6.21 58.1 0.64 294.0
2019-05-21 16:30 6.40 10.53 279 6.20 57.9 0.78 287.0
2019-05-21 16:00 6.82 11.76 280 6.38 57.6 0.76 279.0
2019-05-21 15:30 6.79 10.53 280 6.35 57.6 0.86 278.0
2019-05-21 15:00 6.17 10.53 278 6.52 57.4 0.80 271.0
2019-05-21 14:30 5.94 11.11 281 6.50 57.0 0.97 270.0
2019-05-21 14:00 6.17 11.11 278 6.36 56.8 0.93 259.0
2019-05-21 13:30 6.30 18.18 236 6.71 57.0 1.44 258.0
2019-05-21 13:00 6.63 10.53 286 6.52 57.2 1.17 261.0
2019-05-21 12:30 6.63 9.88 282 6.49 57.4 0.76 238.0
2019-05-21 12:00 6.76 10.53 279 6.66 57.0 0.72 227.0
2019-05-21 11:30 6.46 9.88 279 6.44 57.2 0.74 210.0
2019-05-21 11:00 6.76 11.11 278 6.62 57.4 0.66 205.0
2019-05-21 10:30 6.40 9.88 284 6.07 57.6 0.58 136.0
2019-05-21 10:00 6.23 9.88 284 6.51 57.7 0.60 104.0
2019-05-21 09:30 6.33 11.11 279 6.84 57.9 0.72 92.0
2019-05-21 09:00 5.74 10.53 279 6.76 57.9 0.62 67.0
2019-05-21 08:30 5.91 10.53 275 6.88 58.1 0.78 68.0
2019-05-21 08:00 6.14 11.11 275 7.07 58.1 0.80 61.0
2019-05-21 07:30 6.30 10.53 273 6.87 58.3 0.70 62.0
2019-05-21 07:00 6.14 10.53 275 6.80 58.5 0.72 56.0
2019-05-21 06:30 6.04 10.53 277 7.22 58.5 0.64 61.0
2019-05-21 06:00 6.04 10.53 272 7.30 58.5 0.49 59.0
2019-05-21 05:30 6.63 11.11 274 7.98 58.5 0.51 46.0
2019-05-21 05:00 6.23 11.76 271 7.86 58.5 0.39 48.0
2019-05-21 04:30 5.74 11.76 269 7.76 58.6 0.08 101.0
2019-05-21 04:00 5.81 11.11 278 7.84 58.6 0.02 199.0
2019-05-21 03:30 6.20 11.76 279 8.08 58.6 0.14 232.0
2019-05-21 03:00 5.97 11.76 275 7.73 58.6 0.21 208.0
2019-05-21 02:30 6.33 11.76 271 7.93 58.6 0.33 210.0
2019-05-21 02:00 6.50 11.76 278 8.09 58.6 0.41 183.0
2019-05-21 01:30 6.46 11.76 274 7.75 58.6 0.47 175.0
2019-05-21 01:00 7.05 11.11 279 8.07 58.8 0.52 164.0
2019-05-21 00:30 6.66 11.76 277 8.00 59.0 0.43 159.0
2019-05-21 00:00 7.71 11.76 278 8.38 58.8 0.33 149.0
2019-05-20 23:30 7.61 11.76 276 8.17 59.0 0.45 102.0
2019-05-20 23:00 7.87 11.76 274 8.54 59.0 0.49 78.0
2019-05-20 22:30 7.51 11.11 273 8.34 59.2 0.58 70.0
2019-05-20 22:00 8.07 12.50 269 8.61 59.0 0.76 61.0
2019-05-20 21:30 7.87 12.50 265 8.46 58.8 0.78 57.0
2019-05-20 21:00 8.30 11.76 266 8.54 58.8 0.84 57.0
2019-05-20 20:30 8.17 12.50 269 8.57 58.6 0.86 55.0
2019-05-20 20:00 9.28 12.50 271 8.84 58.6 0.82 47.0
2019-05-20 19:30 8.46 11.76 273 8.61 58.5 0.82 43.0
2019-05-20 19:00 8.50 12.50 272 8.47 58.3 0.70 32.0
2019-05-20 18:30 8.79 12.50 274 8.68 58.3 0.64 30.0
2019-05-20 18:00 8.79 11.11 279 8.68 58.1 0.68 9.0
2019-05-20 17:30 8.66 12.50 274 8.65 58.1 0.52 344.0
2019-05-20 17:00 9.12 11.76 279 8.80 58.1 0.84 307.0
2019-05-20 16:30 8.60 12.50 276 8.43 57.9 0.99 295.0
2019-05-20 16:00 8.73 12.50 275 8.46 57.9 1.38 292.0
2019-05-20 15:30 9.06 11.76 280 8.74 57.9 1.52 287.0
2019-05-20 15:00 8.92 12.50 264 8.63 57.6 1.48 285.0
2019-05-20 14:30 8.92 12.50 273 8.50 57.4 1.63 280.0
2019-05-20 14:00 9.42 12.50 273 8.89 57.2 1.54 276.0
2019-05-20 13:30 8.96 12.50 275 8.84 57.0 1.75 274.0
2019-05-20 13:00 8.50 11.76 270 8.52 56.7 1.87 268.0
2019-05-20 12:30 8.89 12.50 268 8.63 56.5 1.52 264.0
2019-05-20 12:00 8.99 12.50 272 8.85 57.0 2.08 269.0
2019-05-20 11:30 8.99 13.33 269 8.84 56.7 0.80 236.0
2019-05-20 11:00 8.76 12.50 276 9.05 57.0 0.80 245.0
2019-05-20 10:30 8.37 12.50 275 9.24 56.7 0.70 264.0
2019-05-20 10:00 9.28 12.50 277 9.70 56.5 0.66 258.0
2019-05-20 09:30 8.30 13.33 268 9.03 56.5 0.37 229.0
2019-05-20 09:00 8.76 13.33 270 9.26 56.5 0.02 179.0
2019-05-20 08:30 8.92 12.50 274 9.30 56.5 0.27 64.0
2019-05-20 08:00 9.25 13.33 273 9.63 56.8 0.35 63.0
2019-05-20 07:30 9.22 13.33 271 9.58 57.0 0.51 53.0
2019-05-20 07:00 9.28 13.33 273 9.69 57.2 0.62 47.0
2019-05-20 06:30 8.79 13.33 270 9.37 57.2 0.58 42.0
2019-05-20 06:00 9.48 13.33 262 9.75 57.4 0.70 41.0
2019-05-20 05:30 9.09 13.33 266 9.41 57.7 0.56 56.0
2019-05-20 05:00 8.53 14.29 265 9.15 57.6 0.43 30.0
2019-05-20 04:30 8.99 13.33 271 9.40 57.4 0.45 2.0
2019-05-20 04:00 9.84 14.29 274 9.58 57.4 0.49 326.0
2019-05-20 03:30 8.92 14.29 270 9.23 57.4 0.70 308.0
2019-05-20 03:00 9.38 14.29 266 9.60 57.9 0.78 304.0
2019-05-20 02:30 9.55 14.29 263 9.27 57.9 0.78 302.0
2019-05-20 02:00 9.71 14.29 268 9.25 57.9 0.82 291.0
2019-05-20 01:30 8.92 12.50 273 8.86 57.6 0.33 232.0
2019-05-20 01:00 9.58 12.50 270 8.99 57.6 0.37 236.0
2019-05-20 00:30 9.91 14.29 265 9.17 57.6 0.45 227.0
2019-05-20 00:00 9.81 13.33 273 9.20 57.7 0.37 219.0
2019-05-19 23:30 9.81 12.50 273 9.15 57.6 0.37 249.0
2019-05-19 23:00 10.20 14.29 273 9.20 57.4 0.16 232.0
2019-05-19 22:30 10.66 13.33 270 9.34 57.9 0.35 33.0
2019-05-19 22:00 10.73 13.33 269 9.66 58.3 0.66 41.0
2019-05-19 21:30 10.33 12.50 275 9.48 58.1 0.78 36.0
2019-05-19 21:00 9.97 12.50 273 9.52 57.9 0.97 36.0
2019-05-19 20:30 9.06 12.50 273 9.21 57.9 0.99 38.0
2019-05-19 20:00 9.28 12.50 272 9.13 57.6 1.05 41.0
2019-05-19 19:30 8.66 12.50 273 8.78 57.4 1.09 36.0
2019-05-19 19:00 8.04 13.33 269 8.80 57.9 1.11 39.0
2019-05-19 18:30 8.69 12.50 273 8.77 57.6 1.05 38.0
2019-05-19 18:00 7.64 12.50 270 8.45 57.4 0.99 37.0
2019-05-19 17:30 8.04 13.33 268 8.35 57.4 0.82 23.0
2019-05-19 17:00 7.64 13.33 274 8.38 57.6 0.62 14.0
2019-05-19 16:30 7.74 13.33 271 7.85 57.6 0.62 344.0
2019-05-19 16:00 7.91 13.33 268 8.05 57.6 0.80 325.0
2019-05-19 15:30 8.10 13.33 264 7.94 57.4 0.93 308.0
2019-05-19 15:00 8.89 13.33 266 8.31 57.2 1.09 309.0
2019-05-19 14:30 8.43 13.33 264 8.15 57.0 1.19 299.0
2019-05-19 14:00 8.43 13.33 258 8.01 57.0 1.15 292.0
2019-05-19 13:30 9.02 13.33 269 8.85 56.8 0.99 289.0
2019-05-19 13:00 8.66 14.29 262 8.72 56.8 0.99 274.0
2019-05-19 12:30 8.20 14.29 265 8.53 56.8 0.49 290.0
2019-05-19 12:00 8.27 14.29 270 8.99 56.8 0.93 273.0
2019-05-19 11:30 8.73 14.29 275 9.18 56.7 1.22 267.0
2019-05-19 11:00 8.43 14.29 274 9.16 56.7 1.28 269.0
2019-05-19 10:30 8.99 14.29 271 9.58 56.7 1.09 257.0
2019-05-19 10:00 8.30 14.29 272 9.29 56.7 0.58 233.0
2019-05-19 09:30 8.10 14.29 269 8.99 56.7 0.62 232.0
2019-05-19 09:00 8.50 13.33 275 9.13 56.8 0.45 224.0
2019-05-19 08:30 8.23 14.29 272 9.08 56.8 0.16 148.0
2019-05-19 08:00 8.60 15.38 269 9.04 56.8 0.12 137.0
2019-05-19 07:30 8.83 15.38 270 9.22 56.8 0.27 81.0
2019-05-19 07:00 8.37 14.29 266 8.59 56.8 0.52 70.0
2019-05-19 06:30 7.81 14.29 261 7.80 56.8 0.70 56.0
2019-05-19 06:00 8.83 14.29 264 8.23 56.8 0.72 46.0
2019-05-19 05:30 7.38 14.29 260 7.08 56.8 0.91 45.0
2019-05-19 05:00 7.41 15.38 264 6.49 57.0 0.95 40.0
2019-05-19 04:30 7.78 15.38 266 6.21 57.0 1.01 10.0
2019-05-19 04:00 7.71 15.38 268 6.04 57.0 1.09 2.0
2019-05-19 03:30 6.99 5.88 200 5.70 57.0 0.93 354.0
2019-05-19 03:00 6.99 5.56 205 5.71 57.0 0.89 337.0
2019-05-19 02:30 6.53 14.29 246 5.82 57.0 1.19 324.0
2019-05-19 02:00 6.10 5.88 223 5.66 57.2 1.19 319.0
2019-05-19 01:30 6.07 5.88 229 5.45 57.0 1.05 314.0
2019-05-19 01:00 5.94 14.29 241 5.55 57.2 1.34 306.0
2019-05-19 00:30 5.94 14.29 238 5.22 56.7 1.15 317.0
2019-05-19 00:00 5.51 5.26 203 4.95 56.8 0.80 336.0
2019-05-18 23:30 5.12 15.38 229 5.24 57.0 0.52 338.0
2019-05-18 23:00 4.82 14.29 231 4.80 57.0 0.54 334.0
2019-05-18 22:30 4.89 15.38 231 5.11 57.0 0.58 350.0
2019-05-18 22:00 4.49 14.29 225 5.12 57.2 0.58 5.0
2019-05-18 21:30 4.33 15.38 224 5.18 57.0 0.58 18.0
2019-05-18 21:00 3.94 15.38 221 5.00 57.0 0.66 23.0
2019-05-18 20:30 4.13 14.29 227 5.75 57.0 0.87 23.0
2019-05-18 20:00 3.81 14.29 227 5.44 56.8 0.93 21.0
2019-05-18 19:30 3.90 14.29 224 5.19 56.8 0.93 24.0
2019-05-18 19:00 4.04 15.38 233 5.48 56.8 1.13 28.0
2019-05-18 18:30 4.10 15.38 230 5.96 57.0 1.15 23.0
2019-05-18 18:00 4.00 15.38 234 5.88 57.2 1.19 24.0
2019-05-18 17:30 3.67 14.29 229 5.44 57.4 1.09 23.0
2019-05-18 17:00 3.67 14.29 240 5.81 57.6 0.91 17.0
2019-05-18 16:30 3.81 14.29 230 6.27 57.7 0.80 1.0
2019-05-18 16:00 3.84 14.29 237 6.62 57.7 0.78 335.0
2019-05-18 15:30 4.07 15.38 234 7.01 57.9 0.93 310.0
2019-05-18 15:00 3.97 14.29 235 6.95 57.7 1.03 300.0
2019-05-18 14:30 4.04 15.38 234 7.26 57.6 1.22 296.0
2019-05-18 14:00 4.23 14.29 236 7.64 57.4 1.19 290.0
2019-05-18 13:30 4.43 14.29 235 7.79 57.2 1.22 285.0
2019-05-18 13:00 4.43 14.29 237 7.73 57.2 1.36 282.0
2019-05-18 12:30 4.46 15.38 237 7.59 57.0 1.44 273.0
2019-05-18 12:00 4.40 14.29 252 7.52 56.8 1.69 268.0
2019-05-18 11:30 4.46 14.29 239 7.41 56.5 1.65 271.0
2019-05-18 11:00 4.76 14.29 238 7.76 57.0 2.31 271.0
2019-05-18 10:30 4.53 14.29 236 7.49 57.0 2.06 267.0
2019-05-18 10:00 4.30 14.29 242 7.59 56.7 0.72 211.0
2019-05-18 09:30 4.00 15.38 242 7.53 57.0 0.52 202.0
2019-05-18 09:00 3.97 15.38 241 7.87 57.2 0.37 163.0
2019-05-18 08:30 4.13 15.38 242 7.76 57.4 0.23 154.0
2019-05-18 08:00 4.20 14.29 237 8.10 57.6 0.29 119.0
2019-05-18 07:30 3.87 14.29 239 7.65 57.6 0.39 91.0
2019-05-18 07:00 4.04 15.38 239 7.45 57.7 0.52 83.0
2019-05-18 06:30 4.17 15.38 244 7.61 57.7 0.54 77.0
2019-05-18 06:00 4.10 15.38 246 7.39 57.6 0.70 75.0
2019-05-18 05:30 4.10 15.38 239 7.16 57.6 0.70 70.0
2019-05-18 05:00 4.33 15.38 242 7.30 57.9 0.76 66.0
2019-05-18 04:30 4.59 14.29 245 7.16 57.9 0.68 71.0
2019-05-18 04:00 4.46 15.38 235 6.89 57.7 0.62 67.0
2019-05-18 03:30 4.72 15.38 242 6.76 57.7 0.47 54.0
2019-05-18 03:00 5.02 15.38 241 6.98 57.7 0.49 48.0
2019-05-18 02:30 5.02 14.29 238 6.77 57.9 0.33 24.0
2019-05-18 02:00 4.76 9.88 283 6.60 58.1 0.35 330.0
2019-05-18 01:30 4.86 15.38 236 6.52 58.3 0.35 303.0
2019-05-18 00:00 5.09 9.88 278 6.79 58.3 0.39 152.0
2019-05-17 23:30 5.25 9.88 281 6.87 58.3 0.47 170.0
2019-05-17 23:00 5.31 9.88 282 7.04 58.1 0.45 159.0
2019-05-17 22:30 5.61 9.88 282 7.02 58.3 0.43 156.0
2019-05-17 22:00 5.81 9.88 282 7.15 58.3 0.39 143.0
2019-05-17 21:30 5.77 9.88 285 7.14 58.5 0.27 132.0
2019-05-17 21:00 6.36 9.88 283 7.62 58.5 0.37 119.0
2019-05-17 20:30 6.04 9.88 281 7.29 58.3 0.47 102.0
2019-05-17 20:00 6.23 9.88 283 7.37 58.3 0.49 89.0
2019-05-17 19:30 6.53 10.53 283 7.52 58.1 0.56 88.0
2019-05-17 19:00 6.69 9.88 282 7.45 57.9 0.56 80.0
2019-05-17 18:30 6.92 10.53 276 7.81 57.9 0.74 77.0
2019-05-17 18:00 7.02 10.53 279 7.92 57.7 0.68 81.0
2019-05-17 17:30 6.76 10.53 283 7.41 57.7 0.66 76.0
2019-05-17 17:00 7.19 9.88 282 7.63 57.6 0.70 82.0
2019-05-17 16:30 7.51 10.53 278 7.77 57.6 0.58 78.0
2019-05-17 16:00 7.58 10.53 280 7.55 57.6 0.49 65.0
2019-05-17 15:30 8.10 11.11 278 7.78 57.4 0.23 34.0
2019-05-17 15:00 7.91 10.53 284 7.48 57.4 0.29 318.0
2019-05-17 14:30 8.66 11.11 283 7.93 57.4 0.35 295.0
2019-05-17 14:00 8.56 11.11 279 7.79 57.4 0.54 282.0
2019-05-17 13:30 8.76 10.53 282 7.80 57.2 0.70 272.0
2019-05-17 13:00 9.28 11.11 280 7.92 57.2 0.82 267.0
2019-05-17 12:30 9.45 11.11 281 7.99 57.0 0.91 267.0
2019-05-17 12:00 9.84 11.11 286 8.21 57.0 0.97 260.0
2019-05-17 11:30 9.25 11.11 283 8.06 56.8 1.03 259.0
2019-05-17 11:00 9.12 11.76 286 8.00 56.7 1.09 257.0
2019-05-17 10:30 9.91 11.76 287 8.34 56.7 1.32 261.0
2019-05-17 10:00 10.37 11.76 286 8.59 56.7 0.95 243.0
2019-05-17 09:30 9.45 11.11 281 8.38 56.5 0.87 213.0
2019-05-17 09:00 10.53 11.76 279 9.11 56.7 0.89 206.0
2019-05-17 08:30 9.81 11.11 271 8.42 56.8 0.84 198.0
2019-05-17 08:00 10.27 11.76 279 8.44 56.7 0.68 183.0
2019-05-17 07:30 9.65 12.50 278 8.36 56.7 0.52 165.0
2019-05-17 07:00 9.78 11.76 282 8.37 56.8 0.51 150.0
2019-05-17 06:30 9.84 11.76 280 8.47 56.8 0.51 127.0
2019-05-17 06:00 10.63 12.50 277 8.81 56.8 0.60 106.0
2019-05-17 05:30 10.10 11.76 280 8.68 56.8 0.64 98.0
2019-05-17 05:00 11.81 11.76 281 9.23 56.8 0.86 83.0
2019-05-17 04:30 10.56 11.76 277 8.59 56.8 0.74 85.0
2019-05-17 04:00 11.61 11.76 276 8.72 57.0 0.82 79.0
2019-05-17 03:30 11.25 11.76 276 8.74 57.0 0.60 66.0
2019-05-17 03:00 11.52 11.11 274 8.51 57.0 0.68 76.0
2019-05-17 02:30 11.65 12.50 272 8.68 57.2 0.49 59.0
2019-05-17 02:00 11.15 11.76 272 8.20 57.2 0.29 42.0
2019-05-17 01:30 11.55 11.76 279 8.20 57.2 0.21 10.0
2019-05-17 01:00 11.48 11.11 278 8.09 57.0 0.21 356.0
2019-05-17 00:30 11.88 11.76 279 8.30 57.0 0.23 298.0
2019-05-17 00:00 12.01 11.76 278 8.23 57.2 0.51 278.0
2019-05-16 23:30 11.58 11.76 278 8.13 57.2 0.64 265.0
2019-05-16 23:00 11.52 11.76 277 8.17 57.0 0.86 267.0
2019-05-16 22:30 11.25 11.11 272 8.22 57.6
2019-05-16 22:00 10.47 11.76 276 8.00 57.0 0.68 267.0
2019-05-16 21:30 10.20 11.76 277 8.23 57.0 0.51 262.0
2019-05-16 21:00 11.32 12.50 274 8.47 56.7 0.17 254.0
2019-05-16 20:30 11.68 11.76 274 8.23 56.7 0.23 230.0
2019-05-16 20:00 11.22 12.50 271 8.52 56.5 0.08 153.0
2019-05-16 19:30 12.73 11.76 275 8.66 56.5 0.23 70.0
2019-05-16 19:00 11.35 13.33 270 8.32 56.5 0.39 44.0
2019-05-16 18:30 11.25 11.76 272 8.06 56.5 0.52 58.0
2019-05-16 18:00 10.47 11.76 271 8.08 56.5 0.84 53.0
2019-05-16 17:30 10.86 11.76 270 8.41 56.7 0.56 48.0
2019-05-16 17:00 10.79 11.11 274 8.39 56.7 0.72 48.0
2019-05-16 16:30 9.28 8.33 249 7.63 56.7 0.84 55.0
2019-05-16 16:00 8.79 8.33 243 7.24 56.7 0.78 54.0
2019-05-16 15:30 8.63 16.67 233 7.41 56.7 0.82 47.0
2019-05-16 15:00 8.01 8.33 236 7.04 56.7 0.72 34.0
2019-05-16 14:30 7.32 16.67 231 6.83 56.7 0.64 26.0
2019-05-16 14:00 7.51 16.67 232 6.98 56.8 0.76 351.0
2019-05-16 13:30 7.51 16.67 248 7.18 56.8 0.74 333.0
2019-05-16 13:00 7.45 16.67 243 6.97 56.8 0.86 320.0
2019-05-16 12:30 6.92 8.33 228 6.96 56.7 0.97 311.0
2019-05-16 12:00 6.46 16.67 247 6.81 56.7 0.93 302.0
2019-05-16 11:30 6.99 16.67 239 7.24 56.7 0.97 291.0
2019-05-16 11:00 7.22 16.67 241 7.30 56.5 1.19 285.0
2019-05-16 10:30 6.89 16.67 238 7.45 56.5 1.07 273.0
2019-05-16 10:00 7.19 16.67 240 7.20 56.5 1.42 276.0
2019-05-16 09:30 7.09 16.67 238 7.62 56.7 1.69 274.0
2019-05-16 09:00 7.02 7.69 216 7.05 56.5 0.76 284.0
2019-05-16 08:30 7.15 7.69 216 7.20 56.5 0.64 283.0
2019-05-16 08:00 7.22 16.67 235 7.29 57.0 0.37 295.0
2019-05-16 07:30 7.51 16.67 242 7.36 57.0 0.31 325.0
2019-05-16 07:00 7.05 8.33 211 6.76 57.0 0.37 356.0
2019-05-16 06:30 7.58 16.67 239 7.00 57.0 0.39 16.0
2019-05-16 06:00 7.74 16.67 239 6.82 57.0 0.66 27.0
2019-05-16 05:30 7.81 16.67 228 6.64 57.0 0.87 25.0
2019-05-16 05:00 8.10 16.67 233 6.77 56.8 0.91 22.0
2019-05-16 04:30 9.19 7.69 203 6.50 56.8 1.05 24.0
2019-05-16 04:00 9.28 16.67 240 6.39 56.5 1.03 12.0
2019-05-16 03:30 8.83 7.14 194 5.99 56.5 1.11 14.0
2019-05-16 03:00 10.04 7.14 192 6.05 56.7 1.26 12.0
2019-05-16 02:30 9.19 7.14 193 6.05 56.8 1.34 20.0
2019-05-16 02:00 7.91 16.67 239 5.86 56.7 1.30 13.0
2019-05-16 01:30 7.94 16.67 238 5.84 56.7 1.34 3.0
2019-05-16 01:00 7.87 6.25 188 5.71 56.5 1.34 353.0
2019-05-16 00:30 7.35 16.67 245 5.82 56.5 1.26 343.0
2019-05-16 00:00 7.64 16.67 244 5.98 56.5 1.28 328.0
2019-05-15 23:30 7.35 16.67 244 5.77 56.3 1.30 317.0
2019-05-15 23:00 7.32 16.67 242 5.97 56.5 1.34 302.0
2019-05-15 22:30 6.63 16.67 242 6.03 56.8 1.83 296.0
2019-05-15 22:00 7.12 16.67 242 6.81 56.5 1.54 295.0
2019-05-15 21:30 6.92 16.67 243 6.59 57.2 1.59 301.0
2019-05-15 21:00 6.63 16.67 248 6.61 56.7 0.91 329.0
2019-05-15 20:30 6.59 16.67 252 6.17 56.5 0.68 325.0
2019-05-15 20:00 6.40 16.67 251 6.29 56.7 0.51 337.0
2019-05-15 19:30 5.45 18.18 243 5.88 56.5 0.49 336.0
2019-05-15 19:00 5.58 18.18 236 6.09 56.5 0.47 7.0
2019-05-15 18:30 5.81 18.18 236 6.56 56.5 0.31 17.0
2019-05-15 18:00 5.87 18.18 235 7.11 56.7 0.64 30.0
2019-05-15 17:30 5.77 18.18 234 7.04 56.5 0.87 41.0
2019-05-15 17:00 5.54 16.67 231 6.53 55.9 0.91 29.0
2019-05-15 16:30 5.09 16.67 233 7.15 56.1 0.95 42.0
2019-05-15 16:00 5.74 16.67 236 7.74 56.5 1.11 29.0
2019-05-15 15:30 5.31 16.67 233 8.32 56.7 1.17 24.0
2019-05-15 15:00 5.38 18.18 232 9.07 57.0 1.09 7.0
2019-05-15 14:30 5.31 18.18 237 9.10 57.0 0.86 359.0
2019-05-15 14:00 5.38 18.18 231 9.46 57.0 0.78 344.0
2019-05-15 13:30 5.02 18.18 237 9.53 57.2 0.93 319.0
2019-05-15 13:00 5.35 18.18 244 10.75 57.4 1.09 303.0
2019-05-15 12:30 4.76 18.18 247 11.46 57.4 1.48 292.0
2019-05-15 12:00 4.99 18.18 246 12.48 57.2 1.57 285.0
2019-05-15 11:30 4.79 18.18 237 11.89 56.8 1.57 278.0
2019-05-15 11:00 5.18 18.18 237 12.41 56.5 1.52 265.0
2019-05-15 10:30 5.54 18.18 244 13.12 56.1 1.54 261.0
2019-05-15 10:00 4.07 18.18 246 12.14 56.3 1.38 269.0
2019-05-15 09:30 4.40 18.18 248 12.38 57.0 1.81 268.0
2019-05-15 09:00 4.46 18.18 238 12.87 57.7 0.62 253.0
2019-05-15 08:30 4.20 18.18 241 12.86 57.6 0.45 216.0
2019-05-15 08:00 4.10 18.18 245 12.84 57.6 0.56 229.0
2019-05-15 07:30 3.94 18.18 252 12.56 57.6 0.54 227.0
2019-05-15 07:00 4.13 18.18 245 12.83 57.4 0.37 197.0
2019-05-15 06:30 4.36 18.18 235 13.06 57.4 0.19 123.0
2019-05-15 06:00 4.86 18.18 243 13.71 57.4 0.23 75.0
2019-05-15 05:30 3.77 18.18 247 12.10 57.6 0.47 83.0
2019-05-15 05:00 4.43 18.18 247 13.00 57.9 0.43 64.0
2019-05-15 04:30 3.87 18.18 246 12.99 57.9 0.60 67.0
2019-05-15 04:00 4.17 18.18 244 13.31 57.9 0.54 56.0
2019-05-15 03:30 3.67 18.18 238 12.75 57.9 0.56 49.0
2019-05-15 03:00 3.94 18.18 236 13.47 58.5 0.60 35.0
2019-05-15 02:30 3.97 18.18 237 13.64 58.5 0.60 29.0
2019-05-15 02:00 3.81 15.38 230 12.26 58.6 0.52 356.0
2019-05-15 01:30 3.87 18.18 231 13.03 59.0 0.52 342.0
2019-05-15 01:00 3.94 18.18 228 12.36 59.0 0.72 313.0
2019-05-15 00:30 3.84 18.18 236 11.83 59.4 1.13 292.0
2019-05-15 00:00 4.36 18.18 243 11.93 59.2 1.34 287.0
2019-05-14 23:30 4.46 15.38 228 11.86 59.0 1.63 281.0
2019-05-14 23:00 4.17 18.18 243 11.68 58.8 1.71 284.0
2019-05-14 22:30 3.84 15.38 234 11.08 58.3 1.87 281.0
2019-05-14 22:00 3.90 15.38 238 10.89 58.8 2.16 272.0
2019-05-14 21:30 3.61 14.29 241 10.45 57.9 2.24 270.0
2019-05-14 21:00 4.30 14.29 237 11.73 58.1 2.25 270.0
2019-05-14 20:30 4.00 15.38 239 11.54 58.3 2.06 276.0
2019-05-14 20:00 3.58 15.38 232 11.68 58.1 0.25 264.0
2019-05-14 19:30 3.67 15.38 236 11.70 58.3 0.51 286.0
2019-05-14 19:00 4.04 14.29 232 12.39 58.6 0.66 276.0
2019-05-14 18:30 3.71 15.38 233 11.80 58.6 0.68 278.0
2019-05-14 18:00 3.87 14.29 230 12.09 58.3 0.62 287.0
2019-05-14 17:30 3.84 15.38 233 11.65 57.9 0.43 290.0
2019-05-14 17:00 3.67 15.38 239 11.33 57.7 0.29 319.0
2019-05-14 16:30 3.94 15.38 232 11.59 57.6 0.29 15.0
2019-05-14 16:00 4.00 15.38 231 11.63 57.6 0.39 9.0
2019-05-14 15:30 4.33 15.38 232 12.07 57.6 0.51 13.0
2019-05-14 15:00 3.94 15.38 224 11.62 57.4 0.52 6.0
2019-05-14 14:30 4.13 15.38 225 12.02 57.6 0.60 352.0
2019-05-14 14:00 4.30 15.38 225 11.65 57.6 0.56 341.0
2019-05-14 13:30 3.77 15.38 223 10.56 57.4 0.58 334.0
2019-05-14 13:00 3.94 15.38 234 10.49 57.2 0.60 328.0
2019-05-14 12:30 4.10 15.38 232 10.70 57.2 0.76 303.0
2019-05-14 12:00 3.94 15.38 230 10.20 57.2 0.89 288.0
2019-05-14 11:30 4.40 15.38 232 10.40 57.2 0.99 279.0
2019-05-14 11:00 3.84 15.38 228 9.32 57.2 1.30 271.0
2019-05-14 10:30 4.20 15.38 225 9.97 56.7 1.13 265.0
2019-05-14 10:00 3.87 15.38 226 9.13 56.5 1.22 264.0
2019-05-14 09:30 3.97 15.38 231 9.39 57.4 1.67 266.0
2019-05-14 09:00 4.17 15.38 228 9.90 57.4 1.61 267.0
2019-05-14 08:30 3.90 15.38 242 9.41 57.4 0.99 256.0
2019-05-14 08:00 3.97 15.38 237 9.88 57.2 0.56 196.0
2019-05-14 07:30 4.53 15.38 238 10.63 57.4 0.70 198.0
2019-05-14 07:00 4.56 15.38 237 10.64 57.4 0.82 197.0
2019-05-14 06:30 4.40 16.67 234 9.94 57.4 0.72 181.0
2019-05-14 06:00 3.71 16.67 238 8.66 57.6 0.74 169.0
2019-05-14 05:30 4.46 16.67 228 9.38 57.6 0.62 154.0
2019-05-14 05:00 4.33 16.67 228 9.13 57.6 0.52 134.0
2019-05-14 04:30 4.30 15.38 229 7.93 57.7 0.66 124.0
2019-05-14 04:00 4.20 16.67 235 6.81 57.9 0.70 114.0
2019-05-14 03:30 4.66 16.67 239 7.52 57.9 0.78 105.0
2019-05-14 03:00 4.36 15.38 244 6.71 58.1 0.84 100.0
2019-05-14 02:30 4.30 16.67 235 6.51 58.3 0.80 87.0
2019-05-14 02:00 4.56 16.67 237 7.03 58.3 0.66 79.0
2019-05-14 01:30 4.33 15.38 237 6.88 58.6 0.49 63.0
2019-05-14 01:00 4.27 16.67 238 6.78 59.0 0.39 56.0
2019-05-14 00:30 4.20 16.67 237 6.61 59.4 0.25 36.0
2019-05-14 00:00 4.10 16.67 232 6.56 59.7 0.31 332.0
2019-05-13 23:30 4.63 16.67 228 7.55 59.7 0.60 286.0
2019-05-13 23:00 4.59 15.38 224 8.20 59.7 1.07 287.0
2019-05-13 22:30 4.59 15.38 226 8.19 59.9 1.59 276.0
2019-05-13 22:00 4.76 16.67 237 8.60 59.5 1.98 279.0
2019-05-13 21:30 4.36 15.38 232 8.32 59.4 1.85 275.0
2019-05-13 21:00 4.76 16.67 233 9.74 58.3 1.65 277.0
2019-05-13 20:30 4.82 16.67 232 10.06 58.1 2.02 270.0
2019-05-13 20:00 4.30 16.67 237 8.65 57.4 1.98 269.0
2019-05-13 19:30 4.20 16.67 230 8.83 58.3 2.14 269.0
2019-05-13 19:00 4.33 16.67 238 8.62 57.2 0.76 246.0
2019-05-13 18:30 4.07 16.67 238 8.26 57.0 0.37 233.0
2019-05-13 18:00 4.04 16.67 231 8.14 57.0 0.29 248.0
2019-05-13 17:30 4.07 16.67 233 7.86 57.2 0.39 258.0
2019-05-13 17:00 4.10 16.67 239 7.89 57.0 0.39 270.0
2019-05-13 16:30 3.97 16.67 234 7.71 57.0 0.25 268.0
2019-05-13 16:00 4.27 16.67 234 8.54 57.0 0.06 21.0
2019-05-13 15:30 4.69 16.67 229 9.27 57.0 0.17 31.0
2019-05-13 15:00 4.17 16.67 242 8.59 57.0 0.31 64.0
2019-05-13 14:30 3.87 16.67 237 7.92 57.2 0.45 71.0
2019-05-13 14:00 4.17 16.67 237 8.50 57.2 0.35 58.0
2019-05-13 13:30 4.20 16.67 239 8.04 57.2 0.45 44.0
2019-05-13 13:00 4.40 16.67 237 8.36 57.2 0.43 59.0
2019-05-13 12:30 4.86 16.67 236 8.76 57.4 0.41 53.0
2019-05-13 12:00 4.33 16.67 237 7.81 57.6 0.27 19.0
2019-05-13 11:30 4.46 16.67 236 7.34 57.4 0.19 29.0
2019-05-13 11:00 4.36 16.67 242 7.27 57.4 0.16 327.0
2019-05-13 10:30 4.20 16.67 230 6.71 57.2 0.19 306.0
2019-05-13 10:00 4.17 16.67 228 6.05 57.2 0.21 213.0
2019-05-13 09:30 4.69 16.67 240 6.25 57.2 0.39 229.0
2019-05-13 09:00 4.86 16.67 247 6.01 57.0 0.51 194.0
2019-05-13 08:30 4.99 18.18 245 6.25 57.2 0.60 204.0
2019-05-13 08:00 4.95 16.67 237 6.07 57.2 0.58 194.0
2019-05-13 07:30 5.05 18.18 239 6.16 57.0 0.64 201.0
2019-05-13 07:00 4.86 18.18 242 5.89 57.0 0.74 194.0
2019-05-13 06:30 4.99 16.67 241 5.73 57.0 0.82 185.0
2019-05-13 06:00 5.05 18.18 228 5.96 57.2 0.84 181.0
2019-05-13 05:30 5.15 18.18 228 6.33 57.4 0.76 165.0
2019-05-13 05:00 4.89 18.18 225 6.32 57.2 0.72 153.0
2019-05-13 04:30 4.95 18.18 219 6.25 57.2 0.68 144.0
2019-05-13 04:00 4.95 18.18 231 6.07 57.4 0.72 121.0
2019-05-13 03:30 4.59 18.18 243 6.06 57.6 0.66 115.0
2019-05-13 03:00 4.89 18.18 239 6.56 57.6 0.68 105.0
2019-05-13 02:00 4.43 18.18 238 6.34 58.1 0.78 100.0
2019-05-13 01:30 4.30 18.18 239 5.97 58.3 0.84 86.0
2019-05-13 01:00 4.23 18.18 242 5.90 58.5 0.74 79.0
2019-05-13 00:30 4.46 18.18 239 6.08 58.8 0.60 63.0
2019-05-13 00:00 4.56 18.18 239 6.03 59.2 0.43 68.0
2019-05-12 23:30 4.76 18.18 240 6.18 59.4 0.29 11.0
2019-05-12 23:00 4.33 18.18 238 5.72 59.7 0.33 322.0
2019-05-12 22:30 4.53 18.18 235 5.99 59.5 0.72 295.0
2019-05-12 22:00 4.76 18.18 231 6.09 59.4 0.95 284.0
2019-05-12 21:30 4.63 18.18 230 6.04 59.4 1.32 275.0
2019-05-12 21:00 4.49 18.18 235 6.01 59.2 1.57 272.0
2019-05-12 20:30 4.86 18.18 233 6.50 58.8 1.63 273.0
2019-05-12 20:00 4.63 18.18 238 5.88 58.3 1.54 269.0
2019-05-12 19:30 4.66 18.18 244 5.89 57.4 1.54 268.0
2019-05-12 19:00 4.30 18.18 235 5.91 57.0 1.59 265.0
2019-05-12 18:30 4.86 18.18 239 6.47 57.2 2.00 268.0
2019-05-12 18:00 4.27 14.29 232 6.18 57.4 1.65 271.0
2019-05-12 17:30 4.46 18.18 237 6.08 57.2 0.62 234.0
2019-05-12 17:00 4.00 18.18 235 6.13 57.4 0.64 244.0
2019-05-12 16:30 3.97 18.18 238 6.37 57.4 0.70 245.0
2019-05-12 16:00 4.00 20.00 244 6.49 57.2 0.62 240.0
2019-05-12 15:30 3.71 20.00 239 6.82 57.2 0.60 251.0
2019-05-12 15:00 3.61 11.76 263 6.56 57.0 0.43 248.0
2019-05-12 14:30 3.51 11.76 262 6.44 57.0 0.25 239.0
2019-05-12 14:00 3.44 11.76 262 6.21 57.0 0.17 155.0
2019-05-12 13:30 3.61 18.18 234 6.12 57.0 0.21 111.0
2019-05-12 13:00 3.51 15.38 237 6.58 57.2 0.25 93.0
2019-05-12 12:30 3.28 20.00 252 6.20 57.2 0.31 98.0
2019-05-12 12:00 3.31 18.18 248 6.33 57.4 0.23 82.0
2019-05-12 11:30 3.38 18.18 253 6.47 57.4 0.39 93.0
2019-05-12 11:00 3.02 15.38 246 6.14 57.4 0.37 88.0
2019-05-12 10:30 3.51 20.00 256 7.25 57.4 0.33 99.0
2019-05-12 10:00 3.38 13.33 255 6.87 57.4 0.19 139.0
2019-05-12 09:30 3.18 14.29 231 6.73 57.4 0.10 188.0
2019-05-12 09:00 3.15 20.00 245 6.56 57.4 0.25 224.0
2019-05-12 08:30 2.99 15.38 235 6.60 57.4 0.31 221.0
2019-05-12 08:00 3.25 15.38 233 7.13 57.4 0.47 203.0
2019-05-12 07:30 2.99 15.38 237 6.88 57.4 0.51 222.0
2019-05-12 07:00 2.95 20.00 237 6.95 57.6 0.93 197.0
2019-05-12 06:30 2.72 16.67 230 6.33 57.6 0.93 197.0
2019-05-12 06:00 3.08 14.29 239 7.11 57.2 0.72 173.0
2019-05-12 05:30 2.89 11.76 254 6.09 57.4 0.62 158.0
2019-05-12 05:00 2.99 15.38 223 6.09 57.6 0.54 149.0
2019-05-12 04:30 3.22 15.38 224 6.21 57.7 0.52 140.0
2019-05-12 04:00 3.08 13.33 252 5.83 57.9 0.58 131.0
2019-05-12 03:30 3.12 15.38 231 6.02 57.9 0.51 115.0
2019-05-12 03:00 3.22 15.38 239 6.30 57.9 0.51 106.0
2019-05-12 02:30 3.02 15.38 239 5.91 58.3 0.56 88.0
2019-05-12 02:00 3.02 11.76 259 5.89 58.3 0.47 85.0
2019-05-12 01:30 2.99 11.76 256 6.18 58.3 0.62 77.0
2019-05-12 01:00 3.08 15.38 232 5.94 58.6 0.66 69.0
2019-05-12 00:30 3.18 11.11 261 6.12 58.6 0.60 59.0
2019-05-12 00:00 3.25 11.11 258 6.17 58.8 0.49 39.0
2019-05-11 23:30 3.31 11.11 261 6.37 59.0 0.47 22.0
2019-05-11 23:00 3.05 10.53 263 6.19 59.4 0.41 0.0
2019-05-11 22:30 3.18 12.50 247 6.44 59.7 0.58 332.0
2019-05-11 22:00 3.31 12.50 252 6.87 59.7 0.89 302.0
2019-05-11 21:30 3.15 11.11 268 7.07 59.9 1.17 292.0
2019-05-11 21:00 3.28 13.33 242 7.44 59.9 1.69 288.0
2019-05-11 20:30 3.22 11.76 249 7.56 59.9 2.00 282.0
2019-05-11 20:00 3.22 14.29 247 7.71 59.9 2.55 276.0
2019-05-11 19:30 3.05 16.67 235 7.97 59.9 2.70 273.0
2019-05-11 19:00 3.28 13.33 254 8.67 59.0 2.33 275.0
2019-05-11 18:30 2.99 13.33 237 8.13 57.7 1.96 272.0
2019-05-11 18:00 3.05 13.33 241 8.48 56.5 1.46 279.0
2019-05-11 17:30 3.15 11.76 248 8.84 56.5 1.90 272.0
2019-05-11 17:00 3.02 13.33 239 8.36 57.0 2.14 270.0
2019-05-11 16:30 3.22 13.33 248 8.55 57.0 2.00 277.0
2019-05-11 16:00 3.18 11.76 263 8.54 57.2 1.61 261.0
2019-05-11 15:00 3.05 11.76 270 8.08 57.2 0.80 250.0
2019-05-11 14:30 3.08 13.33 252 7.82 57.2 0.78 251.0
2019-05-11 14:00 2.99 12.50 265 7.41 57.4 0.64 255.0
2019-05-11 13:30 3.18 12.50 264 7.59 57.6 0.56 271.0
2019-05-11 13:00 3.08 11.76 273 7.56 57.6 0.43 273.0
2019-05-11 12:30 3.02 12.50 251 7.66 57.6 0.29 315.0
2019-05-11 12:00 3.15 11.76 267 7.75 57.6 0.19 351.0
2019-05-11 11:30 3.28 12.50 259 8.30 57.6 0.14 356.0
2019-05-11 11:00 3.02 14.29 250 7.49 57.6 0.16 350.0
2019-05-11 10:30 3.02 12.50 259 7.81 57.6 0.17 3.0
2019-05-11 10:00 2.89 12.50 254 7.68 57.6 0.16 351.0
2019-05-11 09:30 3.02 12.50 257 8.01 57.6 0.17 294.0
2019-05-11 09:00 3.05 12.50 256 8.02 57.4 0.27 274.0
2019-05-11 08:30 2.85 12.50 252 7.66 57.6 0.27 277.0
2019-05-11 08:00 2.95 12.50 252 8.33 57.6 0.39 267.0
2019-05-11 07:30 2.99 12.50 251 8.10 57.6 0.47 218.0
2019-05-11 07:00 2.89 12.50 257 7.93 57.6 0.52 227.0
2019-05-11 06:30 3.02 12.50 260 8.56 57.7 0.49 209.0
2019-05-11 06:00 2.89 12.50 253 7.99 58.1 0.64 203.0
2019-05-11 05:30 2.95 13.33 265 8.28 58.5 0.64 187.0
2019-05-11 05:00 2.95 12.50 252 8.27 58.5 0.56 186.0
2019-05-11 04:30 2.72 12.50 260 8.02 57.9 0.49 163.0
2019-05-11 04:00 3.02 13.33 255 8.28 57.9 0.49 158.0
2019-05-11 03:30 3.15 12.50 272 8.36 57.9 0.51 144.0
2019-05-11 03:00 2.89 13.33 260 7.65 57.9 0.37 127.0
2019-05-11 02:30 3.15 13.33 264 7.60 57.9 0.47 110.0
2019-05-11 02:00 3.18 13.33 263 7.72 58.1 0.66 92.0
2019-05-11 01:30 2.99 13.33 259 7.37 58.3 0.52 90.0
2019-05-11 01:00 3.08 13.33 251 7.36 58.6 0.60 65.0
2019-05-11 00:30 2.95 13.33 248 7.14 58.5 0.58 46.0
2019-05-11 00:00 2.95 11.76 252 7.13 58.8 0.68 57.0
2019-05-10 23:30 2.85 13.33 256 7.20 58.8 0.54 45.0
2019-05-10 23:00 3.12 13.33 259 7.40 59.0 0.51 27.0
2019-05-10 22:30 3.05 11.76 248 7.55 59.0 0.51 5.0
2019-05-10 22:00 3.15 12.50 243 7.67 59.0 0.60 351.0
2019-05-10 21:30 3.15 12.50 242 7.56 59.5 0.76 331.0
2019-05-10 21:00 3.25 12.50 244 7.18 59.5 0.93 316.0
2019-05-10 20:30 3.18 12.50 242 7.09 59.5 1.28 299.0
2019-05-10 20:00 3.41 12.50 238 7.02 59.4 1.71 290.0
2019-05-10 19:30 3.48 12.50 237 6.69 59.4 2.14 282.0
2019-05-10 19:00 3.35 13.33 241 6.97 59.0 2.35 277.0
2019-05-10 18:30 3.35 13.33 248 7.29 58.5 2.18 278.0
2019-05-10 18:00 3.12 12.50 236 6.84 57.4 1.94 280.0
2019-05-10 17:30 3.25 14.29 240 7.32 57.0 1.83 280.0
2019-05-10 17:00 3.31 13.33 239 7.71 56.5 1.52 277.0
2019-05-10 16:30 3.12 14.29 251 7.24 56.1 1.57 271.0
2019-05-10 16:00 3.15 13.33 245 7.57 55.9 1.54 276.0
2019-05-10 15:30 3.22 13.33 245 7.30 56.8 2.16 276.0
2019-05-10 15:00 3.28 13.33 235 7.75 56.5 1.94 274.0
2019-05-10 14:30 3.18 13.33 259 7.24 56.7 1.21 262.0
2019-05-10 14:00 3.22 14.29 247 7.74 56.7 0.95 252.0
2019-05-10 13:30 3.12 12.50 251 7.47 56.8 0.86 254.0
2019-05-10 13:00 3.18 13.33 226 7.81 57.0 0.82 253.0
2019-05-10 12:30 2.99 14.29 255 7.75 57.0 0.62 248.0
2019-05-10 12:00 2.95 12.50 240 8.12 57.0 0.47 253.0
2019-05-10 11:30 3.05 14.29 248 8.41 56.8 0.08 233.0
2019-05-10 11:00 3.02 11.76 239 8.29 57.0 0.10 6.0
2019-05-10 10:30 3.08 13.33 229 8.20 57.0 0.17 61.0
2019-05-10 10:00 2.92 12.50 231 7.72 57.0 0.16 56.0
2019-05-10 09:30 3.15 13.33 232 8.03 57.2 0.19 42.0
2019-05-10 09:00 3.08 14.29 235 7.77 57.2 0.16 21.0
2019-05-10 08:30 3.12 11.76 239 7.67 57.2 0.21 333.0
2019-05-10 08:00 2.82 12.50 241 6.95 57.2 0.23 306.0
2019-05-10 07:30 3.25 12.50 236 7.49 57.2 0.27 301.0
2019-05-10 07:00 3.08 13.33 235 7.13 57.2 0.33 290.0
2019-05-10 06:30 3.25 13.33 234 7.17 57.2 0.51 289.0
2019-05-10 06:00 3.18 12.50 236 6.94 57.2 0.70 281.0
2019-05-10 05:30 3.31 14.29 234 7.14 57.0 0.41 228.0
2019-05-10 05:00 3.18 10.53 262 7.28 56.7 0.51 234.0
2019-05-10 04:30 3.25 13.33 234 7.56 56.8 0.39 233.0
2019-05-10 04:00 3.08 13.33 229 7.12 57.0 0.27 230.0
2019-05-10 03:30 3.38 13.33 236 7.48 57.2 0.27 217.0
2019-05-10 03:00 3.15 13.33 238 7.49 57.2 0.29 219.0
2019-05-10 02:30 3.05 12.50 235 7.19 57.2 0.23 214.0
2019-05-10 02:00 3.18 13.33 231 7.67 57.4 0.21 174.0
2019-05-10 01:30 3.41 13.33 232 7.84 57.4 0.19 168.0
2019-05-10 01:00 3.41 13.33 236 7.55 57.4 0.16 100.0
2019-05-10 00:30 3.12 13.33 232 7.50 57.4 0.27 57.0
2019-05-10 00:00 3.41 13.33 232 7.65 57.4 0.35 55.0
2019-05-09 23:30 3.12 13.33 237 7.09 57.4 0.35 53.0
2019-05-09 23:00 3.22 13.33 235 6.85 57.7 0.56 49.0
2019-05-09 22:30 3.31 12.50 226 7.03 57.9 0.49 21.0
2019-05-09 22:00 3.44 13.33 227 7.01 57.9 0.58 6.0
2019-05-09 21:30 3.71 14.29 226 7.13 57.9 0.74 6.0
2019-05-09 21:00 3.64 13.33 218 6.75 57.9 0.62 353.0
2019-05-09 20:30 3.94 13.33 226 6.66 58.1 0.80 334.0
2019-05-09 20:00 3.90 13.33 226 6.59 58.1 1.01 311.0
2019-05-09 19:30 3.90 13.33 231 6.39 58.3 1.40 304.0
2019-05-09 19:00 4.20 13.33 229 6.60 58.3 1.77 294.0
2019-05-09 18:30 4.49 14.29 231 6.20 57.9 1.98 285.0
2019-05-09 18:00 4.33 13.33 229 6.23 57.2 1.92 283.0
2019-05-09 17:30 4.63 13.33 228 6.78 57.0 1.83 286.0
2019-05-09 17:00 4.36 13.33 226 6.86 56.3 1.36 294.0
2019-05-09 16:30 4.27 13.33 231 6.68 56.1 1.38 287.0
2019-05-09 16:00 4.00 12.50 224 6.75 55.9 1.63 278.0
2019-05-09 15:30 4.04 13.33 228 7.11 55.6 1.61 273.0
2019-05-09 15:00 4.27 13.33 230 7.25 55.6 1.87 272.0
2019-05-09 14:30 4.07 12.50 227 7.09 56.5 2.12 274.0
2019-05-09 14:00 4.07 13.33 232 7.21 56.5 2.00 281.0
2019-05-09 13:30 3.81 13.33 232 7.04 56.7 0.70 261.0
2019-05-09 13:00 3.71 13.33 229 7.12 56.7 0.91 266.0
2019-05-09 12:30 3.64 14.29 232 6.99 56.7 0.66 271.0
2019-05-09 12:00 3.58 14.29 228 6.43 56.5 0.66 264.0
2019-05-09 11:30 3.61 14.29 221 6.43 56.1 0.37 270.0
2019-05-09 11:00 3.81 14.29 224 7.26 56.1 0.10 285.0
2019-05-09 10:30 3.61 14.29 226 6.94 56.3 0.17 35.0
2019-05-09 10:00 3.44 13.33 221 6.53 56.3 0.33 38.0
2019-05-09 09:30 3.41 13.33 228 6.73 56.5 0.39 38.0
2019-05-09 09:00 3.54 13.33 225 6.99 56.5 0.31 36.0
2019-05-09 08:30 3.67 13.33 225 7.34 56.7 0.31 30.0
2019-05-09 08:00 3.31 13.33 225 7.00 57.0 0.37 14.0
2019-05-09 07:30 3.58 13.33 220 7.61 57.0 0.39 9.0
2019-05-09 07:00 3.51 14.29 225 7.38 57.2 0.23 320.0
2019-05-09 06:30 3.71 14.29 226 7.57 57.2 0.29 318.0
2019-05-09 06:00 3.58 13.33 225 7.54 57.0 0.41 295.0
2019-05-09 05:30 3.81 14.29 224 7.67 57.2 0.52 267.0
2019-05-09 05:00 3.71 14.29 227 7.46 57.2 0.56 266.0
2019-05-09 04:30 3.64 14.29 231 7.50 56.7 0.49 226.0
2019-05-09 04:00 4.10 14.29 234 8.14 56.7 0.41 211.0
2019-05-09 03:30 3.81 14.29 234 8.19 57.0 0.49 214.0
2019-05-09 03:00 3.77 14.29 231 8.17 57.0 0.54 191.0
2019-05-09 02:30 3.58 13.33 229 7.86 57.0 0.39 185.0
2019-05-09 02:00 3.41 13.33 229 7.89 57.0 0.41 201.0
2019-05-09 01:30 3.77 14.29 229 8.29 57.2 0.31 177.0
2019-05-09 01:00 3.44 13.33 229 8.22 57.0 0.16 142.0
2019-05-09 00:30 3.48 14.29 230 8.34 57.0 0.19 112.0
2019-05-09 00:00 3.28 14.29 237 7.93 57.0 0.27 58.0
2019-05-08 23:30 3.28 14.29 236 7.74 56.8 0.37 56.0
2019-05-08 23:00 3.61 14.29 233 8.54 57.2 0.54 63.0
2019-05-08 22:30 3.22 14.29 231 7.69 57.4 0.68 65.0
2019-05-08 22:00 3.35 14.29 235 7.66 57.2 0.68 47.0
2019-05-08 21:30 3.38 14.29 228 7.74 57.2 0.95 43.0
2019-05-08 21:00 3.51 13.33 219 8.17 57.9 0.78 11.0
2019-05-08 20:30 3.64 14.29 214 8.45 57.9 0.80 7.0
2019-05-08 20:00 3.41 14.29 216 7.75 58.1 0.68 349.0
2019-05-08 19:30 3.51 14.29 218 7.71 58.3 0.82 334.0
2019-05-08 19:00 3.77 14.29 218 8.20 58.3 1.07 317.0
2019-05-08 18:30 3.48 14.29 229 7.57 57.9 1.38 300.0
2019-05-08 18:00 3.81 14.29 228 7.88 57.7 1.63 292.0
2019-05-08 17:30 3.81 14.29 230 7.61 57.2 1.54 293.0
2019-05-08 17:00 3.64 14.29 230 7.02 57.0 1.89 287.0
2019-05-08 16:30 4.04 14.29 229 7.95 56.5 1.59 291.0
2019-05-08 16:00 3.97 14.29 225 8.47 56.1 1.40 291.0
2019-05-08 15:30 4.13 14.29 226 8.91 56.1 1.50 286.0
2019-05-08 15:00 3.94 14.29 224 8.66 55.8 1.67 276.0
2019-05-08 14:30 3.41 14.29 223 8.47 55.4 1.48 271.0
2019-05-08 14:00 3.38 15.38 229 8.78 55.6 1.69 270.0
2019-05-08 13:30 3.51 14.29 229 8.52 56.5 2.22 272.0
2019-05-08 13:00 3.64 14.29 230 8.03 56.5 2.20 275.0
2019-05-08 12:30 3.41 15.38 229 8.55 56.7 0.91 256.0
2019-05-08 12:00 3.48 14.29 223 8.21 56.7 0.93 256.0
2019-05-08 11:30 3.08 14.29 228 7.51 56.7 0.66 264.0
2019-05-08 11:00 3.44 15.38 227 8.33 56.5 0.51 259.0
2019-05-08 10:30 3.18 15.38 230 7.52 56.5 0.12 241.0
2019-05-08 10:00 3.74 14.29 229 8.56 56.5 0.12 63.0
2019-05-08 09:30 3.54 15.38 232 8.44 56.7 0.31 60.0
2019-05-08 09:00 3.61 14.29 228 8.10 56.8 0.37 39.0
2019-05-08 08:30 3.81 14.29 230 8.55 57.0 0.47 47.0
2019-05-08 08:00 3.51 15.38 230 8.25 57.0 0.51 41.0
2019-05-08 07:30 3.41 15.38 227 8.00 57.2 0.58 34.0
2019-05-08 07:00 3.51 15.38 225 8.41 57.2 0.45 29.0
2019-05-08 06:30 3.64 15.38 223 8.76 57.4 0.43 19.0
2019-05-08 06:00 3.77 14.29 226 8.62 57.6 0.25 348.0
2019-05-08 05:30 3.58 14.29 228 8.26 57.6 0.33 304.0
2019-05-08 05:00 3.84 15.38 230 8.77 57.6 0.39 298.0
2019-05-08 04:30 3.94 15.38 233 8.84 57.6 0.45 256.0
2019-05-08 04:00 3.90 15.38 224 8.71 57.7 0.51 248.0
2019-05-08 03:30 3.67 14.29 228 8.00 57.4 0.62 252.0
2019-05-08 03:00 3.81 15.38 229 8.25 57.2 0.51 220.0
2019-05-08 02:30 3.71 14.29 228 7.88 58.1 0.51 226.0
2019-05-08 02:00 3.67 15.38 223 8.54 58.8 0.39 221.0
2019-05-08 01:30 3.90 14.29 228 8.96 57.9 0.39 220.0
2019-05-08 01:00 3.74 15.38 227 8.89 58.3 0.31 213.0
2019-05-08 00:30 3.58 15.38 228 8.33 58.5 0.25 141.0
2019-05-08 00:00 3.44 15.38 230 8.63 58.6 0.19 173.0
2019-05-07 23:30 3.41 15.38 237 8.86 58.6 0.19 129.0
2019-05-07 23:00 3.22 15.38 232 9.25 58.8 0.27 89.0
2019-05-07 22:30 3.18 15.38 237 9.14 58.5 0.35 66.0
2019-05-07 22:00 3.31 15.38 234 9.38 58.3 0.49 44.0
2019-05-07 21:30 3.44 15.38 230 9.91 58.3 0.64 38.0
2019-05-07 21:00 3.12 15.38 226 8.96 59.4 0.54 22.0
2019-05-07 20:30 3.18 15.38 219 8.75 59.0 0.60 20.0
2019-05-07 20:00 3.84 15.38 220 9.16 58.8 0.64 9.0
2019-05-07 19:30 3.87 15.38 217 9.35 58.6 0.56 358.0
2019-05-07 19:00 3.84 15.38 215 9.03 58.8 0.66 341.0
2019-05-07 18:30 3.81 15.38 219 8.98 59.7 0.89 321.0
2019-05-07 18:00 3.67 15.38 222 7.73 59.0 1.17 302.0
2019-05-07 17:30 3.97 15.38 228 7.86 58.1 1.48 292.0
2019-05-07 17:00 3.94 15.38 234 7.75 57.7 1.73 292.0
2019-05-07 16:30 4.13 15.38 238 7.80 57.0 1.67 286.0
2019-05-07 16:00 4.00 15.38 240 7.66 56.7 1.69 287.0
2019-05-07 15:30 3.90 15.38 240 7.68 56.3 1.56 290.0
2019-05-07 15:00 4.00 15.38 240 7.83 56.1 1.54 286.0
2019-05-07 14:30 4.33 15.38 240 8.34 55.9 1.79 277.0
2019-05-07 14:00 4.46 15.38 241 8.87 55.6 1.77 272.0
2019-05-07 13:30 3.61 15.38 232 8.07 55.2 1.61 270.0
2019-05-07 13:00 3.77 15.38 241 8.30 55.8 2.12 270.0
2019-05-07 12:30 4.10 15.38 240 7.84 56.5 2.24 277.0
2019-05-07 12:00 4.23 15.38 244 9.08 56.1 1.50 267.0
2019-05-07 11:30 3.71 15.38 229 7.97 56.3 0.80 249.0
2019-05-07 11:00 3.67 16.67 233 8.23 56.1 0.74 262.0
2019-05-07 10:30 3.77 15.38 228 8.65 55.9 0.41 268.0
2019-05-07 10:00 4.00 15.38 229 8.85 55.9 0.19 275.0
2019-05-07 09:30 3.74 15.38 231 8.68 56.1 0.23 17.0
2019-05-07 09:00 3.64 16.67 225 8.54 56.3 0.37 27.0
2019-05-07 08:30 3.84 16.67 228 8.99 56.5 0.54 35.0
2019-05-07 08:00 3.67 16.67 226 8.54 56.5 0.62 39.0
2019-05-07 07:30 3.90 16.67 230 8.87 56.7 0.64 38.0
2019-05-07 07:00 3.44 15.38 224 7.74 56.7 0.64 31.0
2019-05-07 06:30 3.74 16.67 225 7.90 56.8 0.64 30.0
2019-05-07 06:00 3.54 16.67 222 7.73 56.8 0.37 3.0
2019-05-07 05:30 3.64 16.67 223 7.52 57.0 0.35 349.0
2019-05-07 05:00 3.87 16.67 229 7.86 57.0 0.47 328.0
2019-05-07 04:30 3.84 15.38 233 6.81 57.0 0.33 335.0
2019-05-07 04:00 4.00 16.67 233 7.41 57.2 0.31 330.0
2019-05-07 03:30 3.97 16.67 235 6.92 57.0 0.27 302.0
2019-05-07 03:00 4.13 16.67 237 7.00 56.7 0.33 257.0
2019-05-07 02:30 3.90 16.67 234 7.19 57.0 0.64 266.0
2019-05-07 02:00 3.67 16.67 226 7.02 56.3 0.49 257.0
2019-05-07 01:30 3.71 16.67 232 7.57 56.7 0.41 252.0
2019-05-07 01:00 3.51 16.67 237 7.59 57.4 0.41 140.0
2019-05-07 00:30 3.44 16.67 230 6.79 56.8 0.19 133.0
2019-05-07 00:00 3.58 16.67 235 6.55 56.7 0.16 99.0
2019-05-06 23:30 3.58 16.67 236 6.93 56.7 0.25 61.0
2019-05-06 23:00 3.48 16.67 237 6.94 56.5 0.29 59.0
2019-05-06 22:30 3.48 15.38 238 6.74 57.0 0.49 68.0
2019-05-06 22:00 3.58 16.67 239 7.39 57.0 0.62 62.0
2019-05-06 21:30 3.12 16.67 238 6.68 57.0 0.66 58.0
2019-05-06 20:30 3.41 16.67 235 8.39 56.5 0.91 42.0
2019-05-06 20:00 3.08 16.67 232 7.94 57.4 0.74 32.0
2019-05-06 19:30 3.05 15.38 232 7.73 57.4 0.80 20.0
2019-05-06 19:00 2.99 16.67 224 7.22 57.2 0.80 17.0
2019-05-06 18:30 3.18 16.67 227 7.69 57.2 0.76 3.0
2019-05-06 18:00 3.05 15.38 228 7.12 57.4 0.82 345.0
2019-05-06 17:30 3.35 11.76 258 7.33 57.4 0.95 327.0
2019-05-06 17:00 3.48 16.67 235 7.32 57.2 1.15 309.0
2019-05-06 16:30 3.41 16.67 234 7.23 57.0 1.38 303.0
2019-05-06 16:00 3.44 18.18 245 7.28 57.0 1.50 292.0
2019-05-06 15:30 3.41 12.50 233 7.09 56.5 1.61 287.0
2019-05-06 15:00 3.58 16.67 240 7.29 55.9 1.21 292.0
2019-05-06 14:30 3.54 11.76 254 7.34 55.8 1.32 280.0
2019-05-06 14:00 3.51 18.18 242 7.06 55.6 1.63 276.0
2019-05-06 13:30 3.35 18.18 243 7.35 55.2 1.52 269.0
2019-05-06 13:00 3.31 18.18 239 8.06 54.9 1.36 267.0
2019-05-06 12:30 3.58 12.50 237 7.95 55.6 2.18 269.0
2019-05-06 12:00 3.38 12.50 244 7.19 56.1 2.14 275.0
2019-05-06 11:30 3.28 18.18 240 7.61 56.1 0.68 239.0
2019-05-06 11:00 3.35 18.18 249 7.19 55.9 0.99 246.0
2019-05-06 10:30 3.18 15.38 243 7.33 55.9 0.66 234.0
2019-05-06 10:00 3.31 11.76 256 6.95 55.8 0.51 237.0
2019-05-06 09:30 3.35 13.33 232 6.65 55.8 0.16 178.0
2019-05-06 09:00 3.25 18.18 235 6.87 55.9 0.23 80.0
2019-05-06 08:30 3.05 11.76 262 6.85 56.1 0.45 78.0
2019-05-06 08:00 3.18 11.11 270 7.44 56.3 0.41 67.0
2019-05-06 07:30 2.95 15.38 246 7.03 56.3 0.58 67.0
2019-05-06 07:00 3.35 12.50 259 7.44 56.5 0.54 70.0
2019-05-06 06:30 3.48 13.33 240 7.58 56.5 0.64 64.0
2019-05-06 06:00 3.25 12.50 258 6.72 56.5 0.62 52.0
2019-05-06 05:30 3.25 12.50 258 6.65 56.5 0.58 30.0
2019-05-06 05:00 2.99 13.33 234 6.36 56.7 0.49 13.0
2019-05-06 04:30 3.18 12.50 248 7.02 56.8 0.54 4.0
2019-05-06 04:00 3.22 12.50 267 6.78 56.8 0.60 351.0
2019-05-06 03:30 3.38 12.50 249 6.61 57.0 0.66 329.0
2019-05-06 03:00 3.28 12.50 261 6.25 56.7 0.89 320.0
2019-05-06 02:30 3.31 12.50 252 7.18 57.0 0.80 309.0
2019-05-06 02:00 3.35 12.50 260 7.12 57.2 0.76 294.0
2019-05-06 01:30 3.12 12.50 254 7.03 57.0 0.87 288.0
2019-05-06 01:00 3.35 13.33 244 7.76 57.0 1.21 273.0
2019-05-06 00:30 3.22 13.33 256 7.19 56.1 0.43 228.0
2019-05-06 00:00 2.95 16.67 238 6.80 56.1 0.21 187.0
2019-05-05 23:30 3.15 13.33 248 7.57 56.5 0.14 133.0
2019-05-05 23:00 3.02 12.50 259 7.18 56.5 0.16 105.0
2019-05-05 22:30 3.02 12.50 266 7.48 56.5 0.29 99.0
2019-05-05 22:00 3.28 12.50 259 8.61 56.5 0.39 70.0
2019-05-05 21:30 3.44 12.50 260 8.49 56.5 0.52 59.0
2019-05-05 21:00 2.82 12.50 262 7.38 56.5 0.66 50.0
2019-05-05 20:30 2.92 12.50 259 7.87 56.3 0.72 41.0
2019-05-05 20:00 2.85 13.33 242 8.33 56.7 0.84 29.0
2019-05-05 19:30 3.05 12.50 253 8.64 57.2 0.80 28.0
2019-05-05 19:00 2.89 12.50 265 8.48 57.4 0.70 22.0
2019-05-05 18:30 2.95 13.33 249 8.99 57.9 0.72 14.0
2019-05-05 18:00 3.12 13.33 251 8.65 57.7 0.68 356.0
2019-05-05 17:30 3.31 13.33 246 8.60 57.7 0.74 336.0
2019-05-05 17:00 3.44 13.33 240 8.50 57.9 0.97 311.0
2019-05-05 16:30 3.38 13.33 245 7.81 58.1 1.28 296.0
2019-05-05 16:00 3.54 12.50 256 8.05 57.9 1.79 285.0
2019-05-05 15:30 3.81 12.50 248 8.20 57.6 1.92 282.0
2019-05-05 15:00 3.44 13.33 241 7.69 57.0 1.92 281.0
2019-05-05 14:30 3.94 13.33 250 8.37 56.3 1.67 280.0
2019-05-05 14:00 3.67 13.33 241 8.20 55.9 1.71 282.0
2019-05-05 13:30 3.51 13.33 255 7.79 55.6 1.69 276.0
2019-05-05 13:00 3.41 13.33 238 7.98 55.2 1.63 268.0
2019-05-05 12:30 2.82 13.33 269 7.66 54.9 1.48 273.0
2019-05-05 12:00 3.38 13.33 263 8.75 55.4 2.02 269.0
2019-05-05 11:30 3.61 13.33 246 9.09 56.1 1.87 279.0
2019-05-05 11:00 3.31 13.33 257 8.44 56.1 0.56 235.0
2019-05-05 10:30 3.02 13.33 248 8.15 56.3 0.72 221.0
2019-05-05 10:00 3.25 14.29 253 8.67 55.9 0.76 239.0
2019-05-05 09:30 3.18 13.33 253 8.69 55.8 0.31 233.0
2019-05-05 09:00 2.85 13.33 249 7.85 55.8 0.12 236.0
2019-05-05 08:30 3.22 13.33 257 8.54 55.9 0.23 26.0
2019-05-05 08:00 2.99 13.33 250 8.12 55.9 0.33 35.0
2019-05-05 07:30 3.02 13.33 250 7.84 56.1 0.35 42.0
2019-05-05 07:00 3.22 14.29 247 8.18 56.3 0.49 39.0
2019-05-05 06:30 3.08 14.29 257 8.02 56.5 0.54 36.0
2019-05-05 06:00 2.82 13.33 259 7.48 56.5 0.49 37.0
2019-05-05 05:30 3.38 14.29 250 8.23 56.7 0.43 15.0
2019-05-05 05:00 3.51 13.33 248 7.91 56.7 0.39 3.0
2019-05-05 04:30 3.48 13.33 249 7.09 56.5 0.52 338.0
2019-05-05 04:00 3.64 14.29 258 6.86 56.7 0.45 321.0
2019-05-05 03:30 3.77 14.29 248 7.17 56.7 0.68 301.0
2019-05-05 03:00 3.41 13.33 253 6.57 56.3 0.58 291.0
2019-05-05 02:30 3.61 14.29 241 6.80 56.7 0.86 283.0
2019-05-05 02:00 3.38 14.29 242 6.53 57.0 0.60 290.0
2019-05-05 01:30 3.48 13.33 255 6.81 57.4 0.43 304.0
2019-05-05 01:00 3.94 13.33 247 7.74 57.0 0.64 243.0
2019-05-05 00:30 3.71 13.33 251 6.65 57.4 0.80 254.0
2019-05-05 00:00 3.58 14.29 255 6.85 57.0 0.49 218.0
2019-05-04 23:30 3.54 14.29 258 7.04 58.3 0.60 180.0
2019-05-04 23:00 3.48 14.29 252 7.36 58.3 0.52 159.0
2019-05-04 22:30 3.28 14.29 255 7.16
2019-05-04 21:30 3.35 14.29 257 7.97 56.7 0.19 70.0
2019-05-04 21:00 3.22 14.29 256 7.65 56.8 0.37 71.0
2019-05-04 20:30 3.25 14.29 258 8.34 57.6 0.43 73.0
2019-05-04 20:00 3.15 14.29 255 7.82 57.2 0.49 55.0
2019-05-04 19:30 3.35 14.29 253 7.93 57.7 0.51 44.0
2019-05-04 19:00 3.51 14.29 251 8.00 57.6 0.47 37.0
2019-05-04 18:30 3.38 14.29 242 7.47 57.6 0.56 25.0
2019-05-04 18:00 3.71 14.29 250 7.93 57.6 0.66 12.0
2019-05-04 17:30 3.74 14.29 251 7.64 57.6 0.76 360.0
2019-05-04 17:00 3.77 14.29 240 7.54 57.7 0.80 334.0
2019-05-04 16:30 3.71 14.29 241 7.31 57.4 0.99 318.0
2019-05-04 16:00 3.87 14.29 245 7.30 57.7 1.42 294.0
2019-05-04 15:30 3.71 14.29 239 6.45 57.7 1.65 282.0
2019-05-04 15:00 4.27 14.29 251 7.16 57.6 2.02 284.0
2019-05-04 14:30 4.07 15.38 255 7.20 57.2 2.08 279.0
2019-05-04 14:00 3.94 14.29 244 6.51 56.8 2.14 271.0
2019-05-04 13:30 4.17 14.29 249 7.27 56.5 2.10 274.0
2019-05-04 13:00 3.61 14.29 239 6.75 55.6 1.87 276.0
2019-05-04 12:30 3.94 14.29 239 7.16 55.4 1.87 269.0
2019-05-04 12:00 4.00 14.29 235 7.71 55.2 1.79 270.0
2019-05-04 11:30 4.30 15.38 258 7.84 56.1 2.33 269.0
2019-05-04 11:00 3.90 14.29 246 7.62 56.1 2.02 270.0
2019-05-04 10:30 3.77 15.38 257 7.96 56.1 0.97 243.0
2019-05-04 10:00 3.41 15.38 268 7.21 55.9 1.03 235.0
2019-05-04 09:30 3.58 15.38 253 7.44 55.8 0.95 239.0
2019-05-04 09:00 3.74 15.38 262 7.83 55.8 0.84 224.0
2019-05-04 08:30 3.35 15.38 254 6.71 55.8 0.35 175.0
2019-05-04 08:00 3.38 15.38 258 6.77 55.8 0.19 160.0
2019-05-04 07:30 3.35 15.38 254 6.68 55.8 0.19 116.0
2019-05-04 07:00 3.64 15.38 259 7.15 56.1 0.27 89.0
2019-05-04 06:30 3.41 15.38 246 6.54 56.1 0.39 88.0
2019-05-04 06:00 3.58 15.38 261 6.39 56.5 0.43 66.0
2019-05-04 05:30 3.58 15.38 257 6.41 56.5 0.41 68.0
2019-05-04 05:00 3.74 15.38 253 6.46 56.8 0.33 43.0
2019-05-04 04:30 3.64 15.38 241 5.91 56.8 0.29 16.0
2019-05-04 04:00 3.64 14.29 230 5.52 57.0 0.29 1.0
2019-05-04 03:30 4.04 14.29 228 5.83 57.0 0.47 318.0
2019-05-04 03:00 4.07 15.38 244 5.70 56.8 0.74 295.0
2019-05-04 02:30 4.04 15.38 239 5.75 56.8 0.70 287.0
2019-05-04 02:00 4.17 14.29 223 5.84 56.3 0.70 281.0
2019-05-04 01:30 4.13 14.29 230 5.80 56.5 0.86 287.0
2019-05-04 01:00 4.33 15.38 241 5.77 57.2 0.86 277.0
2019-05-04 00:30 4.17 14.29 225 5.87 57.4 0.41 284.0
2019-05-04 00:00 4.13 15.38 242 6.21 57.6 0.54 262.0
2019-05-03 23:30 4.00 15.38 241 5.94 57.6 0.80 244.0
2019-05-03 23:00 3.94 15.38 245 5.55 56.8 0.51 251.0
2019-05-03 22:30 3.54 14.29 234 5.45 57.0 0.54 174.0
2019-05-03 22:00 3.87 14.29 235 5.36 57.0 0.27 108.0
2019-05-03 21:30 3.87 15.38 241 5.77 56.8 0.35 62.0
2019-05-03 21:00 3.77 15.38 241 6.37 57.0 0.54 60.0
2019-05-03 20:30 3.77 14.29 231 6.80 57.2 0.70 40.0
2019-05-03 20:00 3.94 14.29 230 6.56 57.2 0.84 33.0
2019-05-03 19:30 4.07 14.29 230 6.48 58.1 0.66 35.0
2019-05-03 19:00 4.10 14.29 230 6.15 58.3 0.84 19.0
2019-05-03 18:30 4.43 14.29 226 6.34 58.5 0.82 20.0
2019-05-03 18:00 4.40 15.38 226 6.50 58.3 0.86 17.0
2019-05-03 17:30 4.27 15.38 217 6.36 58.1 0.82 359.0
2019-05-03 17:00 4.17 14.29 221 6.40 57.6 0.74 343.0
2019-05-03 16:30 4.10 14.29 223 6.37 57.6 0.86 338.0
2019-05-03 16:00 3.97 14.29 229 6.37 57.6 1.09 312.0
2019-05-03 15:30 4.10 14.29 234 6.53 57.4 1.32 297.0
2019-05-03 15:00 4.10 14.29 231 6.67 57.6 1.54 291.0
2019-05-03 14:30 4.23 14.29 236 6.41 57.6 2.14 283.0
2019-05-03 14:00 4.23 14.29 234 6.31 57.4 2.18 278.0
2019-05-03 13:30 4.27 14.29 232 6.63 57.0 2.20 276.0
2019-05-03 13:00 4.36 14.29 231 7.05 56.1 2.08 276.0
2019-05-03 12:30 3.90 14.29 229 6.64 55.8 2.02 275.0
2019-05-03 12:00 4.10 15.38 237 6.82 55.2 1.98 270.0
2019-05-03 11:30 4.00 14.29 234 6.80 55.2 1.96 270.0
2019-05-03 11:00 4.07 15.38 244 6.89 56.1 2.35 271.0
2019-05-03 10:30 3.97 14.29 229 7.24 56.1 1.50 267.0
2019-05-03 10:00 3.87 14.29 234 7.11 56.7 1.26 229.0
2019-05-03 09:30 3.61 15.38 219 6.62 55.9 1.48 222.0
2019-05-03 09:00 3.61 14.29 231 6.75 55.4 1.01 226.0
2019-05-03 08:30 3.35 15.38 240 6.01 55.4 0.74 214.0
2019-05-03 08:00 3.71 14.29 233 6.18 55.6 0.60 187.0
2019-05-03 07:30 3.48 15.38 237 6.01 55.6 0.49 164.0
2019-05-03 07:00 3.58 15.38 230 5.87 55.6 0.43 142.0
2019-05-03 06:30 3.87 15.38 233 5.88 55.8 0.54 114.0
2019-05-03 06:00 3.81 14.29 235 5.50 55.8 0.43 102.0
2019-05-03 05:30 3.97 14.29 237 5.51 55.9 0.49 100.0
2019-05-03 04:30 4.07 14.29 241 5.13 56.3 0.37 69.0
2019-05-03 04:00 4.27 15.38 236 5.46 56.5 0.17 52.0
2019-05-03 03:30 4.20 15.38 228 5.00 56.7 0.31 322.0
2019-05-03 03:00 4.46 15.38 230 5.50 57.0 0.43 285.0
2019-05-03 02:30 4.30 14.29 226 5.44 57.6 0.72 289.0
2019-05-03 02:00 4.43 15.38 231 5.75 57.6 1.01 281.0
2019-05-03 01:30 4.49 14.29 222 5.87 57.4 1.24 280.0
2019-05-03 01:00 4.17 14.29 221 6.08 57.6 1.42 276.0
2019-05-03 00:30 4.36 15.38 231 6.37 57.0 1.48 279.0
2019-05-03 00:00 4.07 14.29 232 6.37 57.9 1.77 274.0
2019-05-02 23:30 3.71 15.38 241 6.72 58.5 1.63 282.0
2019-05-02 23:00 3.51 15.38 230 6.72 57.4 0.86 285.0
2019-05-02 22:30 3.71 15.38 228 6.72 58.3 0.84 268.0
2019-05-02 22:00 3.31 15.38 232 6.57 59.0 0.91 257.0
2019-05-02 21:30 3.31 14.29 230 6.88 60.3 0.56 252.0
2019-05-02 21:00 3.31 15.38 230 6.94 58.1 0.31 70.0
2019-05-02 20:30 3.58 15.38 235 6.95 57.7 0.47 46.0
2019-05-02 20:00 3.64 15.38 233 7.49 57.9 0.60 41.0
2019-05-02 19:30 3.58 15.38 233 7.05 57.7 0.64 33.0
2019-05-02 19:00 3.67 15.38 236 7.23 59.0 0.41 17.0
2019-05-02 18:30 3.71 14.29 224 6.82 59.2 0.78 11.0
2019-05-02 18:00 3.67 15.38 215 7.16 59.7 0.76 6.0
2019-05-02 17:30 3.48 15.38 222 6.97 59.0 0.74 354.0
2019-05-02 17:00 3.67 15.38 220 6.91 58.3 0.78 348.0
2019-05-02 16:30 3.67 15.38 220 6.86 57.9 0.86 331.0
2019-05-02 16:00 3.90 14.29 224 6.79 57.4 0.99 312.0
2019-05-02 15:30 4.07 15.38 228 7.23 57.0 1.13 313.0
2019-05-02 15:00 3.90 14.29 232 6.86 57.0 1.40 291.0
2019-05-02 14:30 4.07 15.38 232 6.58 57.2 1.75 286.0
2019-05-02 14:00 4.10 14.29 234 6.46 57.2 2.16 282.0
2019-05-02 13:30 4.43 14.29 233 6.56 57.0 2.47 276.0
2019-05-02 13:00 4.13 14.29 233 6.70 56.8 2.45 276.0
2019-05-02 12:30 3.61 14.29 235 6.68 56.5 2.45 271.0
2019-05-02 12:00 3.64 15.38 238 6.58 55.6 2.29 271.0
2019-05-02 11:30 3.58 14.29 234 6.74 54.9 2.08 272.0
2019-05-02 11:00 3.44 15.38 232 7.41 56.1 2.33 271.0
2019-05-02 10:30 3.22 15.38 224 7.16 55.9 1.75 276.0
2019-05-02 10:00 3.05 15.38 223 7.46 56.3 1.79 261.0
2019-05-02 09:30 3.18 14.29 225 7.73 55.8 1.05 243.0
2019-05-02 09:00 3.22 14.29 229 7.98 55.9 0.91 246.0
2019-05-02 08:30 2.85 15.38 236 6.96 56.1 0.68 242.0
2019-05-02 08:00 3.18 15.38 234 7.60 55.2 0.33 233.0
2019-05-02 07:30 3.25 15.38 235 7.39 55.4 0.08 304.0
2019-05-02 07:00 3.08 15.38 233 6.84 55.6 0.33 19.0
2019-05-02 06:30 3.31 15.38 236 7.37 55.4 0.43 29.0
2019-05-02 06:00 3.22 15.38 234 7.02 55.4 0.33 23.0
2019-05-02 05:30 3.12 14.29 228 6.81 55.9 0.58 27.0
2019-05-02 05:00 3.25 14.29 228 7.23 56.5 0.56 19.0
2019-05-02 04:30 3.05 16.67 232 6.57 56.7 0.49 9.0
2019-05-02 04:00 3.18 14.29 227 6.96 56.7 0.52 355.0
2019-05-02 03:30 3.35 15.38 222 6.90 57.0 0.56 326.0
2019-05-02 03:00 3.51 14.29 223 7.15 57.0 0.87 296.0
2019-05-02 02:30 3.51 15.38 229 6.91 57.2 1.13 298.0
2019-05-02 02:00 3.58 14.29 227 6.86 57.2 1.44 286.0
2019-05-02 01:30 3.51 13.33 235 6.88 57.6 1.81 279.0
2019-05-02 01:00 3.67 15.38 235 7.29 57.6 1.96 277.0
2019-05-02 00:30 3.90 14.29 235 7.07 57.6 2.39 277.0
2019-05-02 00:00 4.00 14.29 231 7.36 57.4 2.06 276.0
2019-05-01 23:30 3.94 15.38 237 7.32 57.6 2.12 278.0
2019-05-01 23:00 3.74 15.38 239 7.42
2019-05-01 22:00 3.15 14.29 229 7.22 57.9 1.30 288.0
2019-05-01 21:30 3.28 14.29 229 7.73 57.2 0.62 291.0
2019-05-01 21:00 3.38 15.38 225 7.55 55.8 0.91 273.0
2019-05-01 20:30 3.41 15.38 232 7.31 56.5 0.33 312.0
2019-05-01 20:00 3.38 14.29 232 7.10 56.1 0.35 351.0
2019-05-01 19:30 3.31 14.29 233 7.39 55.9 0.41 344.0
2019-05-01 19:00 3.51 13.33 237 7.38 55.6 0.47 358.0
2019-05-01 18:30 3.48 13.33 236 7.11 55.4 0.52 7.0
2019-05-01 18:00 3.28 15.38 225 7.13 55.4 0.60 18.0
2019-05-01 17:30 3.38 13.33 234 7.27 55.6 0.62 1.0
2019-05-01 17:00 3.58 15.38 224 7.39 55.9 0.66 13.0
2019-05-01 16:30 3.54 15.38 227 6.95 56.5 0.78 345.0
2019-05-01 16:00 3.71 14.29 229 7.36 56.7 0.89 335.0
2019-05-01 15:30 3.90 13.33 244 7.08 56.7 0.91 312.0
2019-05-01 14:30 4.30 15.38 231 7.27 56.5 1.42 296.0
2019-05-01 14:00 4.10 14.29 233 6.67 56.1 1.57 291.0
2019-05-01 13:30 4.20 14.29 236 6.83 56.5 2.06 281.0
2019-05-01 13:00 4.82 14.29 234 7.00 56.5 2.25 278.0
2019-05-01 12:30 4.56 15.38 244 6.57 56.1 2.29 274.0
2019-05-01 12:00 4.89 15.38 238 6.77 55.6 2.33 272.0
2019-05-01 11:30 4.76 14.29 238 6.49 55.6 2.43 272.0
2019-05-01 11:00 4.82 8.33 287 6.47 55.4 2.41 275.0
2019-05-01 10:30 4.66 15.38 238 6.89 55.8 2.18 276.0
2019-05-01 10:00 4.40 14.29 236 7.13 55.2 1.56 288.0
2019-05-01 09:30 4.36 14.29 233 6.98 55.6 1.61 269.0
2019-05-01 09:00 4.36 14.29 230 7.26 55.8 1.54 272.0
2019-05-01 08:30 3.94 15.38 222 6.87 55.2 1.01 281.0
2019-05-01 08:00 3.94 14.29 231 6.89 55.2 0.80 276.0
2019-05-01 07:30 4.13 14.29 231 6.95 55.4 0.62 297.0
2019-05-01 07:00 4.30 15.38 233 7.04 55.4 0.52 298.0
2019-05-01 06:30 4.10 14.29 230 6.78 55.6 0.58 349.0
2019-05-01 06:00 4.07 14.29 225 7.16 55.6 0.64 1.0
2019-05-01 05:30 4.07 15.38 219 7.01 55.4 0.56 7.0
2019-05-01 05:00 4.10 14.29 226 7.00 55.9 0.78 5.0
2019-05-01 04:30 4.23 15.38 224 6.99 55.8 0.41 0.0
2019-05-01 04:00 3.97 14.29 221 6.66 56.1 0.41 343.0
2019-05-01 03:30 4.10 9.09 289 6.53 56.5 0.64 318.0
2019-05-01 03:00 4.20 15.38 223 6.62 57.0 0.80 310.0
2019-05-01 02:30 4.17 15.38 225 6.37 56.8 0.99 301.0
2019-05-01 02:00 4.59 15.38 233 6.57 57.0 1.22 295.0
2019-05-01 01:30 4.53 13.33 227 6.26 57.2 1.54 287.0
2019-05-01 01:00 4.79 13.33 230 6.57 57.6 1.83 283.0
2019-05-01 00:30 4.99 14.29 231 6.60 57.4 2.16 276.0
2019-05-01 00:00 5.12 9.88 292 6.82 57.0 2.29 277.0